Observation data for Bootleg on 02/14/2017      Previous  Date  Next       Current Mesonet Observations  Soil Data  Daily Summary Page  Observations in Plain Language
KBO1 140600Z 34007KT 02/01 A3007 RMK A01 T00190012  RH  095%=      5-min Rain = 0
KBO1 140601Z 34008KT 02/01 A3007 RMK A01 T00200012  RH  095%=      5-min Rain = 0
KBO1 140602Z 34009KT 02/01 A3007 RMK A01 T00200013  RH  095%=      5-min Rain = 0
KBO1 140603Z 34008KT 02/01 A3007 RMK A01 T00200013  RH  095%=      5-min Rain = 0
KBO1 140604Z 34008KT 02/01 A3007 RMK A01 T00200013  RH  095%=      5-min Rain = 0
KBO1 140605Z 34008KT 02/01 A3007 RMK A01 T00200013  RH  095%=      5-min Rain = 0
KBO1 140606Z 34008KT 02/01 A3007 RMK A01 T00200013  RH  095%=      5-min Rain = 0
KBO1 140607Z 34008KT 02/01 A3007 RMK A01 T00200013  RH  095%=      5-min Rain = 0
KBO1 140608Z 34009KT 02/01 A3007 RMK A01 T00200013  RH  095%=      5-min Rain = 0
KBO1 140609Z 34010KT 02/01 A3007 RMK A01 T00200013  RH  095%=      5-min Rain = 0
KBO1 140610Z 34008KT 02/01 A3007 RMK A01 T00200013  RH  095%=      5-min Rain = 0
KBO1 140611Z 34009KT 02/01 A3007 RMK A01 T00200013  RH  095%=      5-min Rain = 0
KBO1 140612Z 34009KT 02/01 A3007 RMK A01 T00200013  RH  095%=      5-min Rain = 0
KBO1 140613Z 34008KT 02/01 A3007 RMK A01 T00200013  RH  095%=      5-min Rain = 0
KBO1 140614Z 34007KT 02/01 A3007 RMK A01 T00200013  RH  095%=      5-min Rain = 0
KBO1 140615Z 34006KT 02/01 A3007 RMK A01 T00200013  RH  095%=      5-min Rain = 0
KBO1 140616Z 34007KT 02/01 A3007 RMK A01 T00200014  RH  096%=      5-min Rain = 0
KBO1 140617Z 34009KT 02/01 A3007 RMK A01 T00200013  RH  096%=      5-min Rain = 0
KBO1 140618Z 34008KT 02/01 A3007 RMK A01 T00200014  RH  096%=      5-min Rain = 0
KBO1 140619Z 34007KT 02/01 A3006 RMK A01 T00200014  RH  096%=      5-min Rain = 0
KBO1 140620Z 34007KT 02/01 A3006 RMK A01 T00200014  RH  096%=      5-min Rain = 0
KBO1 140621Z 34008KT 02/01 A3006 RMK A01 T00200014  RH  096%=      5-min Rain = 0
KBO1 140622Z 34008KT 02/01 A3007 RMK A01 T00200014  RH  096%=      5-min Rain = 0
KBO1 140623Z 35006KT 02/01 A3007 RMK A01 T00200014  RH  096%=      5-min Rain = 0
KBO1 140624Z 35008KT 02/02 A3007 RMK A01 T00210015  RH  096%=      5-min Rain = 0
KBO1 140625Z 35009KT 02/02 A3007 RMK A01 T00210015  RH  096%=      5-min Rain = 0
KBO1 140626Z 34008KT 02/02 A3007 RMK A01 T00210015  RH  096%=      5-min Rain = 0
KBO1 140627Z 34009KT 02/02 A3007 RMK A01 T00210015  RH  096%=      5-min Rain = 0
KBO1 140628Z 34009KT 02/02 A3007 RMK A01 T00210015  RH  096%=      5-min Rain = 0
KBO1 140629Z 35009KT 02/02 A3007 RMK A01 T00210015  RH  096%=      5-min Rain = 0
KBO1 140630Z 34009KT 02/02 A3007 RMK A01 T00210015  RH  096%=      5-min Rain = 0
KBO1 140631Z 34010KT 02/02 A3007 RMK A01 T00210015  RH  096%=      5-min Rain = 0
KBO1 140632Z 34010KT 02/02 A3007 RMK A01 T00210015  RH  096%=      5-min Rain = 0
KBO1 140633Z 34010KT 02/02 A3007 RMK A01 T00210015  RH  096%=      5-min Rain = 0
KBO1 140634Z 35010KT 02/02 A3007 RMK A01 T00210015  RH  096%=      5-min Rain = 0
KBO1 140635Z 35009KT 02/02 A3007 RMK A01 T00210015  RH  096%=      5-min Rain = 0
KBO1 140636Z 34008KT 02/02 A3007 RMK A01 T00210015  RH  096%=      5-min Rain = 0
KBO1 140637Z 35010KT 02/02 A3007 RMK A01 T00210016  RH  096%=      5-min Rain = 0
KBO1 140638Z 34009KT 02/02 A3007 RMK A01 T00210016  RH  096%=      5-min Rain = 0
KBO1 140639Z 35009KT 02/02 A3007 RMK A01 T00210016  RH  096%=      5-min Rain = 0
KBO1 140640Z 35009KT 02/02 A3007 RMK A01 T00210015  RH  096%=      5-min Rain = 0
KBO1 140641Z 35008KT 02/02 A3007 RMK A01 T00210016  RH  096%=      5-min Rain = 0
KBO1 140642Z 35010KT 02/02 A3007 RMK A01 T00220016  RH  096%=      5-min Rain = 0
KBO1 140643Z 35010KT 02/02 A3007 RMK A01 T00220016  RH  096%=      5-min Rain = 0
KBO1 140644Z 35009KT 02/02 A3007 RMK A01 T00220016  RH  096%=      5-min Rain = 0
KBO1 140645Z 35009KT 02/02 A3007 RMK A01 T00220016  RH  096%=      5-min Rain = 0
KBO1 140646Z 34010KT 02/02 A3007 RMK A01 T00220016  RH  096%=      5-min Rain = 0
KBO1 140647Z 34010KT 02/02 A3006 RMK A01 T00220016  RH  096%=      5-min Rain = 0
KBO1 140648Z 34010KT 02/02 A3006 RMK A01 T00220016  RH  096%=      5-min Rain = 0
KBO1 140649Z 34011KT 02/02 A3006 RMK A01 T00220016  RH  096%=      5-min Rain = 0
KBO1 140650Z 34011KT 02/02 A3006 RMK A01 T00220016  RH  096%=      5-min Rain = 0
KBO1 140651Z 34010KT 02/02 A3006 RMK A01 T00220016  RH  096%=      5-min Rain = 0
KBO1 140652Z 35011KT 02/02 A3006 RMK A01 T00220016  RH  096%=      5-min Rain = 0
KBO1 140653Z 35010KT 02/02 A3006 RMK A01 T00220016  RH  096%=      5-min Rain = 0
KBO1 140654Z 35010KT 02/02 A3006 RMK A01 T00220016  RH  096%=      5-min Rain = 0
KBO1 140655Z 35010KT 02/02 A3007 RMK A01 T00210016  RH  096%=      5-min Rain = 0
KBO1 140656Z 34010KT 02/02 A3007 RMK A01 T00220016  RH  096%=      5-min Rain = 0
KBO1 140657Z 34012KT 02/02 A3007 RMK A01 T00220016  RH  096%=      5-min Rain = 0
KBO1 140658Z 34009KT 02/02 A3007 RMK A01 T00220016  RH  096%=      5-min Rain = 0
KBO1 140659Z 34011KT 02/02 A3007 RMK A01 T00210016  RH  096%=      5-min Rain = 0
KBO1 140700Z 34011KT 02/02 A3007 RMK A01 T00220016  RH  096%=      5-min Rain = 0
KBO1 140701Z 35010KT 02/02 A3007 RMK A01 T00220017  RH  096%=      5-min Rain = 0
KBO1 140702Z 35011KT 02/02 A3007 RMK A01 T00220016  RH  096%=      5-min Rain = 0
KBO1 140703Z 35011KT 02/02 A3007 RMK A01 T00220017  RH  096%=      5-min Rain = 0
KBO1 140704Z 35010KT 02/02 A3007 RMK A01 T00210016  RH  096%=      5-min Rain = 0
KBO1 140705Z 34009KT 02/02 A3007 RMK A01 T00220017  RH  096%=      5-min Rain = 0
KBO1 140706Z 34011KT 02/02 A3007 RMK A01 T00210016  RH  096%=      5-min Rain = 0
KBO1 140707Z 34011KT 02/02 A3007 RMK A01 T00220017  RH  096%=      5-min Rain = 0
KBO1 140708Z 35011KT 02/02 A3007 RMK A01 T00220016  RH  096%=      5-min Rain = 0
KBO1 140709Z 34010KT 02/02 A3007 RMK A01 T00220016  RH  096%=      5-min Rain = 0
KBO1 140710Z 34013KT 02/02 A3006 RMK A01 T00220017  RH  096%=      5-min Rain = 0
KBO1 140711Z 35014KT 02/02 A3006 RMK A01 T00220017  RH  096%=      5-min Rain = 0
KBO1 140712Z 35014KT 02/02 A3007 RMK A01 T00220017  RH  096%=      5-min Rain = 0
KBO1 140713Z 34014KT 02/02 A3006 RMK A01 T00220016  RH  096%=      5-min Rain = 0
KBO1 140714Z 34014KT 02/02 A3006 RMK A01 T00210016  RH  096%=      5-min Rain = 0
KBO1 140715Z 34012KT 02/02 A3006 RMK A01 T00210016  RH  096%=      5-min Rain = 0
KBO1 140716Z 35013KT 02/02 A3007 RMK A01 T00220016  RH  096%=      5-min Rain = 0
KBO1 140717Z 35010KT 02/02 A3007 RMK A01 T00220016  RH  096%=      5-min Rain = 0
KBO1 140718Z 35010KT 02/02 A3007 RMK A01 T00220016  RH  096%=      5-min Rain = 0
KBO1 140719Z 35010KT 02/02 A3007 RMK A01 T00220017  RH  096%=      5-min Rain = 0
KBO1 140720Z 35011KT 02/02 A3007 RMK A01 T00220017  RH  096%=      5-min Rain = 0
KBO1 140721Z 35010KT 02/02 A3007 RMK A01 T00220017  RH  096%=      5-min Rain = 0
KBO1 140722Z 35011KT 02/02 A3007 RMK A01 T00220016  RH  096%=      5-min Rain = 0
KBO1 140723Z 35012KT 02/02 A3007 RMK A01 T00220017  RH  096%=      5-min Rain = 0
KBO1 140724Z 35012KT 02/02 A3007 RMK A01 T00220017  RH  096%=      5-min Rain = 0
KBO1 140725Z 35012KT 02/02 A3007 RMK A01 T00220016  RH  096%=      5-min Rain = 0
KBO1 140726Z 35012KT 02/02 A3007 RMK A01 T00220016  RH  096%=      5-min Rain = 0
KBO1 140727Z 35012KT 02/02 A3007 RMK A01 T00220016  RH  096%=      5-min Rain = 0
KBO1 140728Z 35013KT 02/02 A3007 RMK A01 T00220016  RH  096%=      5-min Rain = 0
KBO1 140729Z 35014KT 02/02 A3007 RMK A01 T00210015  RH  096%=      5-min Rain = 0
KBO1 140730Z 35013KT 02/02 A3007 RMK A01 T00200015  RH  096%=      5-min Rain = 0
KBO1 140731Z 35013KT 02/01 A3007 RMK A01 T00200014  RH  096%=      5-min Rain = 0
KBO1 140732Z 35009KT 02/01 A3007 RMK A01 T00200014  RH  096%=      5-min Rain = 0
KBO1 140733Z 35011KT 02/01 A3007 RMK A01 T00200014  RH  096%=      5-min Rain = 0
KBO1 140734Z 34011KT 02/01 A3007 RMK A01 T00200014  RH  096%=      5-min Rain = 0
KBO1 140735Z 35012KT 02/01 A3007 RMK A01 T00190013  RH  096%=      5-min Rain = 0
KBO1 140736Z 35012KT 02/01 A3007 RMK A01 T00190013  RH  096%=      5-min Rain = 0
KBO1 140737Z 34011KT 02/01 A3007 RMK A01 T00190013  RH  095%=      5-min Rain = 0
KBO1 140738Z 35012KT 02/01 A3007 RMK A01 T00190012  RH  095%=      5-min Rain = 0
KBO1 140739Z 34012KT 02/01 A3007 RMK A01 T00190012  RH  095%=      5-min Rain = 0
KBO1 140740Z 35012KT 02/01 A3007 RMK A01 T00180012  RH  095%=      5-min Rain = 0
KBO1 140741Z 35011KT 02/01 A3007 RMK A01 T00180012  RH  095%=      5-min Rain = 0
KBO1 140742Z 35012KT 02/01 A3007 RMK A01 T00180011  RH  095%=      5-min Rain = 0
KBO1 140743Z 34010KT 02/01 A3007 RMK A01 T00190011  RH  095%=      5-min Rain = 0
KBO1 140744Z 35012KT 02/01 A3007 RMK A01 T00180011  RH  095%=      5-min Rain = 0
KBO1 140745Z 35012KT 02/01 A3007 RMK A01 T00180011  RH  095%=      5-min Rain = 0
KBO1 140746Z 35011KT 02/01 A3007 RMK A01 T00180010  RH  095%=      5-min Rain = 0
KBO1 140747Z 35012KT 02/01 A3007 RMK A01 T00180010  RH  095%=      5-min Rain = 0
KBO1 140748Z 35011KT 02/01 A3007 RMK A01 T00180010  RH  095%=      5-min Rain = 0
KBO1 140749Z 35009KT 02/01 A3007 RMK A01 T00180010  RH  094%=      5-min Rain = 0
KBO1 140750Z 35010KT 02/01 A3007 RMK A01 T00180010  RH  094%=      5-min Rain = 0
KBO1 140751Z 35012KT 02/01 A3007 RMK A01 T00180009  RH  094%=      5-min Rain = 0
KBO1 140752Z 35012KT 02/01 A3007 RMK A01 T00180009  RH  094%=      5-min Rain = 0
KBO1 140753Z 35012KT 02/01 A3007 RMK A01 T00170009  RH  094%=      5-min Rain = 0
KBO1 140754Z 34010KT 02/01 A3007 RMK A01 T00180009  RH  094%=      5-min Rain = 0
KBO1 140755Z 35010KT 02/01 A3007 RMK A01 T00180009  RH  094%=      5-min Rain = 0
KBO1 140756Z 34011KT 02/01 A3007 RMK A01 T00180009  RH  094%=      5-min Rain = 0
KBO1 140757Z 35009KT 02/01 A3007 RMK A01 T00170009  RH  094%=      5-min Rain = 0
KBO1 140758Z 34010KT 02/01 A3007 RMK A01 T00180009  RH  094%=      5-min Rain = 0
KBO1 140759Z 34012KT 02/01 A3007 RMK A01 T00170009  RH  094%=      5-min Rain = 0
KBO1 140800Z 35011KT 02/01 A3008 RMK A01 T00180009  RH  094%=      5-min Rain = 0
KBO1 140801Z 35012KT 02/01 A3008 RMK A01 T00180009  RH  094%=      5-min Rain = 0
KBO1 140802Z 35012KT 02/01 A3008 RMK A01 T00170009  RH  094%=      5-min Rain = 0
KBO1 140803Z 34011KT 02/01 A3007 RMK A01 T00170009  RH  094%=      5-min Rain = 0
KBO1 140804Z 34010KT 02/01 A3008 RMK A01 T00180009  RH  094%=      5-min Rain = 0
KBO1 140805Z 34012KT 02/01 A3008 RMK A01 T00180009  RH  094%=      5-min Rain = 0
KBO1 140806Z 34012KT 02/01 A3008 RMK A01 T00170008  RH  094%=      5-min Rain = 0
KBO1 140807Z 34013KT 02/01 A3008 RMK A01 T00170008  RH  094%=      5-min Rain = 0
KBO1 140808Z 34012KT 02/01 A3008 RMK A01 T00180008  RH  094%=      5-min Rain = 0
KBO1 140809Z 34014KT 02/01 A3008 RMK A01 T00180008  RH  094%=      5-min Rain = 0
KBO1 140810Z 34014KT 02/01 A3008 RMK A01 T00170008  RH  094%=      5-min Rain = 0
KBO1 140811Z 34012KT 02/01 A3008 RMK A01 T00170008  RH  094%=      5-min Rain = 0
KBO1 140812Z 34013KT 02/01 A3008 RMK A01 T00170008  RH  094%=      5-min Rain = 0
KBO1 140813Z 34014KT 02/01 A3008 RMK A01 T00170008  RH  094%=      5-min Rain = 0
KBO1 140814Z 34014KT 02/01 A3008 RMK A01 T00170008  RH  094%=      5-min Rain = 0
KBO1 140815Z 34015KT 02/01 A3007 RMK A01 T00160007  RH  094%=      5-min Rain = 0
KBO1 140816Z 34016KT 02/01 A3007 RMK A01 T00160007  RH  094%=      5-min Rain = 0
KBO1 140817Z 34014KT 02/01 A3007 RMK A01 T00150007  RH  094%=      5-min Rain = 0
KBO1 140818Z 34014KT 02/01 A3007 RMK A01 T00150007  RH  094%=      5-min Rain = 0
KBO1 140819Z 34014KT 02/01 A3007 RMK A01 T00150007  RH  094%=      5-min Rain = 0
KBO1 140820Z 34013KT 02/01 A3007 RMK A01 T00150007  RH  094%=      5-min Rain = 0
KBO1 140821Z 34013KT 02/01 A3007 RMK A01 T00150006  RH  094%=      5-min Rain = 0
KBO1 140822Z 35011KT 01/01 A3007 RMK A01 T00140006  RH  094%=      5-min Rain = 0
KBO1 140823Z 34013KT 01/01 A3007 RMK A01 T00140006  RH  094%=      5-min Rain = 0
KBO1 140824Z 34013KT 01/01 A3007 RMK A01 T00140006  RH  094%=      5-min Rain = 0
KBO1 140825Z 34015KT 01/01 A3007 RMK A01 T00140006  RH  095%=      5-min Rain = 0
KBO1 140826Z 34015KT 01/01 A3007 RMK A01 T00140006  RH  095%=      5-min Rain = 0
KBO1 140827Z 35014KT 01/01 A3007 RMK A01 T00140006  RH  095%=      5-min Rain = 0
KBO1 140828Z 34014KT 01/01 A3007 RMK A01 T00140006  RH  095%=      5-min Rain = 0
KBO1 140829Z 34013KT 01/01 A3007 RMK A01 T00140006  RH  095%=      5-min Rain = 0
KBO1 140830Z 34014KT 01/01 A3007 RMK A01 T00140006  RH  095%=      5-min Rain = 0
KBO1 140831Z 35015KT 01/01 A3007 RMK A01 T00130006  RH  095%=      5-min Rain = 0
KBO1 140832Z 34014KT 01/01 A3007 RMK A01 T00130005  RH  095%=      5-min Rain = 0
KBO1 140833Z 34014KT 01/01 A3007 RMK A01 T00130005  RH  095%=      5-min Rain = 0
KBO1 140834Z 35013KT 01/01 A3006 RMK A01 T00130005  RH  095%=      5-min Rain = 0
KBO1 140835Z 34015KT 01/01 A3007 RMK A01 T00130005  RH  095%=      5-min Rain = 0
KBO1 140836Z 34015KT 01/01 A3006 RMK A01 T00130005  RH  095%=      5-min Rain = 0
KBO1 140837Z 34013KT 01/01 A3006 RMK A01 T00130005  RH  095%=      5-min Rain = 0
KBO1 140838Z 34015KT 01/01 A3006 RMK A01 T00130006  RH  095%=      5-min Rain = 0
KBO1 140839Z 34016KT 01/01 A3006 RMK A01 T00130006  RH  095%=      5-min Rain = 0
KBO1 140840Z 34017KT 01/01 A3006 RMK A01 T00130006  RH  095%=      5-min Rain = 0
KBO1 140841Z 34016KT 01/01 A3006 RMK A01 T00130006  RH  095%=      5-min Rain = 0
KBO1 140842Z 34016KT 01/01 A3006 RMK A01 T00130006  RH  095%=      5-min Rain = 0
KBO1 140843Z 34016KT 01/01 A3006 RMK A01 T00140007  RH  095%=      5-min Rain = 0
KBO1 140844Z 34016KT 01/01 A3006 RMK A01 T00140007  RH  095%=      5-min Rain = 0
KBO1 140845Z 34014KT 01/01 A3006 RMK A01 T00140007  RH  095%=      5-min Rain = 0
KBO1 140846Z 34014KT 01/01 A3006 RMK A01 T00140007  RH  095%=      5-min Rain = 0
KBO1 140847Z 35015G21KT 01/01 A3006 RMK A01 T00140007  RH  095%=      5-min Rain = 0
KBO1 140848Z 34020KT 01/01 A3006 RMK A01 T00140007  RH  095%=      5-min Rain = 0
KBO1 140849Z 34019KT 01/01 A3006 RMK A01 T00140007  RH  095%=      5-min Rain = 0
KBO1 140850Z 34019KT 01/01 A3006 RMK A01 T00140007  RH  095%=      5-min Rain = 0
KBO1 140851Z 34018KT 01/01 A3006 RMK A01 T00140007  RH  095%=      5-min Rain = 0
KBO1 140852Z 34018KT 01/01 A3006 RMK A01 T00140007  RH  095%=      5-min Rain = 0
KBO1 140853Z 34019KT 01/01 A3006 RMK A01 T00140007  RH  095%=      5-min Rain = 0
KBO1 140854Z 34018KT 01/01 A3006 RMK A01 T00140007  RH  095%=      5-min Rain = 0
KBO1 140855Z 35018KT 01/01 A3007 RMK A01 T00140007  RH  095%=      5-min Rain = 0
KBO1 140856Z 35016KT 01/01 A3007 RMK A01 T00140007  RH  095%=      5-min Rain = 0
KBO1 140857Z 35018KT 01/01 A3007 RMK A01 T00140007  RH  095%=      5-min Rain = 0
KBO1 140858Z 35017KT 01/01 A3006 RMK A01 T00140007  RH  095%=      5-min Rain = 0
KBO1 140859Z 35017G22KT 01/01 A3006 RMK A01 T00140007  RH  095%=      5-min Rain = 0
KBO1 140900Z 34019KT 01/01 A3006 RMK A01 T00140007  RH  095%=      5-min Rain = 0
KBO1 140901Z 35018KT 02/01 A3006 RMK A01 T00150008  RH  095%=      5-min Rain = 0
KBO1 140902Z 34018G24KT 02/01 A3006 RMK A01 T00150008  RH  095%=      5-min Rain = 0
KBO1 140903Z 35019KT 02/01 A3006 RMK A01 T00150008  RH  095%=      5-min Rain = 0
KBO1 140904Z 34019G24KT 02/01 A3006 RMK A01 T00150008  RH  095%=      5-min Rain = 0
KBO1 140905Z 35018G25KT 02/01 A3006 RMK A01 T00150008  RH  095%=      5-min Rain = 0
KBO1 140906Z 35017KT 02/01 A3006 RMK A01 T00150008  RH  095%=      5-min Rain = 0
KBO1 140907Z 35018G24KT 02/01 A3006 RMK A01 T00150008  RH  095%=      5-min Rain = 0
KBO1 140908Z 35017KT 02/01 A3006 RMK A01 T00150008  RH  095%=      5-min Rain = 0
KBO1 140909Z 35013G18KT 02/01 A3006 RMK A01 T00150008  RH  095%=      5-min Rain = 0
KBO1 140910Z 35017KT 02/01 A3006 RMK A01 T00150007  RH  095%=      5-min Rain = 0
KBO1 140911Z 34015G22KT 02/01 A3006 RMK A01 T00150007  RH  095%=      5-min Rain = 0
KBO1 140912Z 35019KT 02/01 A3006 RMK A01 T00150008  RH  095%=      5-min Rain = 0
KBO1 140913Z 35021KT 02/01 A3006 RMK A01 T00150008  RH  095%=      5-min Rain = 0
KBO1 140914Z 35017KT 02/01 A3006 RMK A01 T00150007  RH  095%=      5-min Rain = 0
KBO1 140915Z 35018KT 02/01 A3006 RMK A01 T00150007  RH  095%=      5-min Rain = 0
KBO1 140916Z 35020KT 02/01 A3006 RMK A01 T00150007  RH  094%=      5-min Rain = 0
KBO1 140917Z 35016KT 02/01 A3006 RMK A01 T00160007  RH  094%=      5-min Rain = 0
KBO1 140918Z 35019KT 02/01 A3006 RMK A01 T00160007  RH  094%=      5-min Rain = 0
KBO1 140919Z 35016KT 02/01 A3006 RMK A01 T00150007  RH  094%=      5-min Rain = 0
KBO1 140920Z 36015G21KT 02/01 A3006 RMK A01 T00160007  RH  094%=      5-min Rain = 0.01
KBO1 140921Z 35017KT 02/01 A3006 RMK A01 T00160007  RH  094%=      5-min Rain = 0
KBO1 140922Z 35014KT 02/01 A3006 RMK A01 T00160007  RH  094%=      5-min Rain = 0
KBO1 140923Z 35017KT 02/01 A3006 RMK A01 T00160007  RH  094%=      5-min Rain = 0
KBO1 140924Z 35015KT 02/01 A3006 RMK A01 T00160007  RH  094%=      5-min Rain = 0
KBO1 140925Z 35016KT 02/01 A3006 RMK A01 T00160007  RH  094%=      5-min Rain = 0
KBO1 140926Z 35016KT 02/01 A3006 RMK A01 T00150007  RH  094%=      5-min Rain = 0
KBO1 140927Z 35018KT 02/01 A3006 RMK A01 T00150006  RH  094%=      5-min Rain = 0
KBO1 140928Z 35019KT 02/01 A3006 RMK A01 T00150006  RH  094%=      5-min Rain = 0
KBO1 140929Z 35016KT 01/01 A3006 RMK A01 T00140005  RH  094%=      5-min Rain = 0.01
KBO1 140930Z 35018G23KT 01/01 A3006 RMK A01 T00140005  RH  094%=      5-min Rain = 0
KBO1 140931Z 35015KT 01/01 A3006 RMK A01 T00140005  RH  094%=      5-min Rain = 0
KBO1 140932Z 35015KT 01/01 A3006 RMK A01 T00140005  RH  094%=      5-min Rain = 0
KBO1 140933Z 35016KT 01/01 A3006 RMK A01 T00140005  RH  094%=      5-min Rain = 0
KBO1 140934Z 35017KT 01/01 A3006 RMK A01 T00140005  RH  094%=      5-min Rain = 0
KBO1 140935Z 35019KT 01/01 A3006 RMK A01 T00140005  RH  094%=      5-min Rain = 0
KBO1 140936Z 35015KT 01/01 A3006 RMK A01 T00130005  RH  094%=      5-min Rain = 0
KBO1 140937Z 35013KT 01/00 A3006 RMK A01 T00130004  RH  094%=      5-min Rain = 0
KBO1 140938Z 35016KT 01/00 A3006 RMK A01 T00120004  RH  094%=      5-min Rain = 0
KBO1 140939Z 35017KT 01/00 A3006 RMK A01 T00120004  RH  094%=      5-min Rain = 0.01
KBO1 140940Z 35014G19KT 01/00 A3006 RMK A01 T00120004  RH  094%=      5-min Rain = 0
KBO1 140941Z 35015G20KT 01/00 A3006 RMK A01 T00120004  RH  094%=      5-min Rain = 0
KBO1 140942Z 34016KT 01/00 A3006 RMK A01 T00120003  RH  094%=      5-min Rain = 0
KBO1 140943Z 35012KT 01/00 A3006 RMK A01 T00120004  RH  094%=      5-min Rain = 0
KBO1 140944Z 35015KT 01/00 A3006 RMK A01 T00110003  RH  094%=      5-min Rain = 0
KBO1 140945Z 35017KT 01/00 A3006 RMK A01 T00110003  RH  094%=      5-min Rain = 0
KBO1 140946Z 36017KT 01/00 A3006 RMK A01 T00110003  RH  094%=      5-min Rain = 0
KBO1 140947Z 36013KT 01/00 A3006 RMK A01 T00110003  RH  095%=      5-min Rain = 0
KBO1 140948Z 35015KT 01/00 A3006 RMK A01 T00110003  RH  094%=      5-min Rain = 0
KBO1 140949Z 36015KT 01/00 A3006 RMK A01 T00110003  RH  095%=      5-min Rain = 0
KBO1 140950Z 35015KT 01/00 A3006 RMK A01 T00110003  RH  095%=      5-min Rain = 0
KBO1 140951Z 35016KT 01/00 A3006 RMK A01 T00110003  RH  095%=      5-min Rain = 0
KBO1 140952Z 35016KT 01/00 A3006 RMK A01 T00110003  RH  095%=      5-min Rain = 0
KBO1 140953Z 36016KT 01/00 A3006 RMK A01 T00110003  RH  095%=      5-min Rain = 0.01
KBO1 140954Z 35017KT 01/00 A3006 RMK A01 T00100002  RH  095%=      5-min Rain = 0
KBO1 140955Z 35013KT 01/00 A3006 RMK A01 T00100002  RH  095%=      5-min Rain = 0
KBO1 140956Z 35014KT 01/00 A3006 RMK A01 T00100002  RH  095%=      5-min Rain = 0
KBO1 140957Z 35016G21KT 01/00 A3007 RMK A01 T00100003  RH  095%=      5-min Rain = 0
KBO1 140958Z 35019KT 01/00 A3007 RMK A01 T00100002  RH  095%=      5-min Rain = 0
KBO1 140959Z 35016KT 01/00 A3007 RMK A01 T00100003  RH  095%=      5-min Rain = 0
KBO1 141000Z 35016G22KT 01/00 A3007 RMK A01 T00100003  RH  095%=      5-min Rain = 0
KBO1 141001Z 35018KT 01/00 A3007 RMK A01 T00100003  RH  095%=      5-min Rain = 0
KBO1 141002Z 35016KT 01/00 A3007 RMK A01 T00100002  RH  095%=      5-min Rain = 0
KBO1 141003Z 34016KT 01/00 A3007 RMK A01 T00100003  RH  095%=      5-min Rain = 0
KBO1 141004Z 35017KT 01/00 A3007 RMK A01 T00100002  RH  095%=      5-min Rain = 0
KBO1 141005Z 35015KT 01/00 A3007 RMK A01 T00100002  RH  095%=      5-min Rain = 0
KBO1 141006Z 35015KT 01/00 A3007 RMK A01 T00100002  RH  095%=      5-min Rain = 0
KBO1 141007Z 35017G24KT 01/00 A3007 RMK A01 T00100002  RH  095%=      5-min Rain = 0
KBO1 141008Z 35018KT 01/00 A3007 RMK A01 T00090002  RH  095%=      5-min Rain = 0
KBO1 141009Z 35018KT 01/00 A3007 RMK A01 T00090002  RH  095%=      5-min Rain = 0
KBO1 141010Z 35016KT 01/00 A3007 RMK A01 T00090002  RH  095%=      5-min Rain = 0
KBO1 141011Z 35020KT 01/00 A3007 RMK A01 T00090001  RH  095%=      5-min Rain = 0
KBO1 141012Z 35020KT 01/00 A3007 RMK A01 T00090001  RH  095%=      5-min Rain = 0
KBO1 141013Z 35014KT 01/00 A3007 RMK A01 T00080001  RH  095%=      5-min Rain = 0
KBO1 141014Z 35017KT 01/00 A3007 RMK A01 T00080001  RH  095%=      5-min Rain = 0
KBO1 141015Z 35017KT 01/00 A3007 RMK A01 T00080001  RH  095%=      5-min Rain = 0
KBO1 141016Z 35018KT 01/00 A3007 RMK A01 T00080000  RH  095%=      5-min Rain = 0
KBO1 141017Z 35015KT 01/00 A3007 RMK A01 T00080001  RH  095%=      5-min Rain = 0
KBO1 141018Z 35016KT 01/00 A3007 RMK A01 T00080000  RH  095%=      5-min Rain = 0
KBO1 141019Z 35018KT 01/00 A3007 RMK A01 T00080000  RH  095%=      5-min Rain = 0
KBO1 141020Z 35019KT 01/00 A3007 RMK A01 T00070000  RH  095%=      5-min Rain = 0
KBO1 141021Z 35017KT 01/00 A3007 RMK A01 T000700-0  RH  095%=      5-min Rain = 0
KBO1 141022Z 35015KT 01/00 A3007 RMK A01 T000700-0  RH  095%=      5-min Rain = 0
KBO1 141023Z 34014KT 01/00 A3007 RMK A01 T000700-0  RH  095%=      5-min Rain = 0
KBO1 141024Z 34016KT 01/00 A3007 RMK A01 T000700-0  RH  095%=      5-min Rain = 0
KBO1 141025Z 35016KT 01/M00 A3007 RMK A01 T00061001  RH  095%=      5-min Rain = 0
KBO1 141026Z 35013G18KT 01/00 A3007 RMK A01 T000700-0  RH  095%=      5-min Rain = 0
KBO1 141027Z 35015KT 01/00 A3007 RMK A01 T000600-0  RH  095%=      5-min Rain = 0
KBO1 141028Z 35014KT 01/00 A3007 RMK A01 T000600-0  RH  095%=      5-min Rain = 0
KBO1 141029Z 35015KT 01/00 A3007 RMK A01 T000600-0  RH  095%=      5-min Rain = 0
KBO1 141030Z 35016KT 01/00 A3007 RMK A01 T000600-0  RH  095%=      5-min Rain = 0
KBO1 141031Z 35016KT 01/00 A3008 RMK A01 T000700-0  RH  095%=      5-min Rain = 0
KBO1 141032Z 35015KT 01/00 A3008 RMK A01 T00070000  RH  095%=      5-min Rain = 0
KBO1 141033Z 35016KT 01/00 A3008 RMK A01 T00070000  RH  095%=      5-min Rain = 0
KBO1 141034Z 35014KT 01/00 A3008 RMK A01 T00070000  RH  095%=      5-min Rain = 0
KBO1 141035Z 35013KT 01/00 A3008 RMK A01 T00070000  RH  095%=      5-min Rain = 0
KBO1 141036Z 35016KT 01/00 A3008 RMK A01 T00070001  RH  095%=      5-min Rain = 0
KBO1 141037Z 35014KT 01/00 A3008 RMK A01 T00070001  RH  095%=      5-min Rain = 0
KBO1 141038Z 35014KT 01/00 A3008 RMK A01 T00070001  RH  095%=      5-min Rain = 0
KBO1 141039Z 35016KT 01/00 A3008 RMK A01 T00070001  RH  095%=      5-min Rain = 0
KBO1 141040Z 35015KT 01/00 A3008 RMK A01 T00080001  RH  095%=      5-min Rain = 0
KBO1 141041Z 35015KT 01/00 A3008 RMK A01 T00070001  RH  095%=      5-min Rain = 0
KBO1 141042Z 36013KT 01/00 A3008 RMK A01 T00080001  RH  095%=      5-min Rain = 0
KBO1 141043Z 35014KT 01/00 A3008 RMK A01 T00070001  RH  095%=      5-min Rain = 0.01
KBO1 141044Z 35015KT 01/00 A3008 RMK A01 T00070001  RH  095%=      5-min Rain = 0
KBO1 141045Z 35014KT 01/00 A3008 RMK A01 T00070001  RH  095%=      5-min Rain = 0
KBO1 141046Z 35014KT 01/00 A3008 RMK A01 T00070000  RH  095%=      5-min Rain = 0
KBO1 141047Z 35015KT 01/00 A3008 RMK A01 T00070000  RH  095%=      5-min Rain = 0
KBO1 141048Z 35015KT 01/00 A3008 RMK A01 T00070000  RH  095%=      5-min Rain = 0
KBO1 141049Z 35014KT 01/00 A3008 RMK A01 T000600-0  RH  095%=      5-min Rain = 0
KBO1 141050Z 35015KT 01/00 A3008 RMK A01 T00070000  RH  095%=      5-min Rain = 0
KBO1 141051Z 34014KT 01/00 A3008 RMK A01 T000600-0  RH  095%=      5-min Rain = 0
KBO1 141052Z 35015KT 01/00 A3008 RMK A01 T000600-0  RH  095%=      5-min Rain = 0
KBO1 141053Z 35014KT 01/00 A3008 RMK A01 T000600-0  RH  095%=      5-min Rain = 0
KBO1 141054Z 35015KT 01/M00 A3008 RMK A01 T00061001  RH  095%=      5-min Rain = 0
KBO1 141055Z 35014KT 01/00 A3008 RMK A01 T000600-0  RH  095%=      5-min Rain = 0
KBO1 141056Z 35013KT 01/M00 A3008 RMK A01 T00051001  RH  095%=      5-min Rain = 0
KBO1 141057Z 35014KT 01/M00 A3008 RMK A01 T00061001  RH  096%=      5-min Rain = 0.01
KBO1 141058Z 35013KT 01/M00 A3008 RMK A01 T00051001  RH  096%=      5-min Rain = 0
KBO1 141059Z 35015KT 01/M00 A3008 RMK A01 T00051001  RH  096%=      5-min Rain = 0
KBO1 141100Z 35012KT 01/M00 A3008 RMK A01 T00051001  RH  095%=      5-min Rain = 0
KBO1 141101Z 35012KT 01/M00 A3008 RMK A01 T00051002  RH  096%=      5-min Rain = 0
KBO1 141102Z 35013KT 00/M00 A3008 RMK A01 T00041002  RH  096%=      5-min Rain = 0
KBO1 141103Z 35014KT 00/M00 A3008 RMK A01 T00041002  RH  096%=      5-min Rain = 0
KBO1 141104Z 35013KT 00/M00 A3008 RMK A01 T00041003  RH  096%=      5-min Rain = 0
KBO1 141105Z 35013KT 00/M00 A3008 RMK A01 T00031003  RH  096%=      5-min Rain = 0
KBO1 141106Z 35013KT 00/M00 A3008 RMK A01 T00031003  RH  096%=      5-min Rain = 0
KBO1 141107Z 35012KT 00/M00 A3008 RMK A01 T00031003  RH  096%=      5-min Rain = 0
KBO1 141108Z 36012KT 00/M00 A3008 RMK A01 T00031004  RH  096%=      5-min Rain = 0
KBO1 141109Z 35012KT 00/M00 A3008 RMK A01 T00021004  RH  096%=      5-min Rain = 0
KBO1 141110Z 35014KT 00/M00 A3008 RMK A01 T00021004  RH  096%=      5-min Rain = 0
KBO1 141111Z 35014G20KT 00/M00 A3008 RMK A01 T00021004  RH  096%=      5-min Rain = 0
KBO1 141112Z 35015KT 00/M00 A3008 RMK A01 T00021004  RH  096%=      5-min Rain = 0
KBO1 141113Z 34015KT 00/M00 A3008 RMK A01 T00021004  RH  096%=      5-min Rain = 0
KBO1 141114Z 35016KT 00/M00 A3008 RMK A01 T00021004  RH  096%=      5-min Rain = 0
KBO1 141115Z 35015KT 00/M00 A3008 RMK A01 T00021004  RH  096%=      5-min Rain = 0
KBO1 141116Z 35017KT 00/M00 A3008 RMK A01 T00021004  RH  096%=      5-min Rain = 0
KBO1 141117Z 36018KT 00/M00 A3008 RMK A01 T00031003  RH  096%=      5-min Rain = 0
KBO1 141118Z 36014KT 00/M00 A3008 RMK A01 T00031003  RH  096%=      5-min Rain = 0
KBO1 141119Z 35017KT 00/M00 A3008 RMK A01 T00031003  RH  096%=      5-min Rain = 0
KBO1 141120Z 36017KT 00/M00 A3008 RMK A01 T00031003  RH  096%=      5-min Rain = 0
KBO1 141121Z 35015KT 00/M00 A3008 RMK A01 T00031003  RH  096%=      5-min Rain = 0
KBO1 141122Z 35015KT 00/M00 A3008 RMK A01 T00021004  RH  096%=      5-min Rain = 0
KBO1 141123Z 35015KT 00/M00 A3008 RMK A01 T00021004  RH  096%=      5-min Rain = 0
KBO1 141124Z 35013KT 00/M00 A3008 RMK A01 T00021004  RH  096%=      5-min Rain = 0
KBO1 141125Z 35013KT 00/M00 A3008 RMK A01 T00021004  RH  096%=      5-min Rain = 0
KBO1 141126Z 35014KT 00/M01 A3008 RMK A01 T00011005  RH  096%=      5-min Rain = 0
KBO1 141127Z 36014KT 00/M01 A3008 RMK A01 T00011005  RH  096%=      5-min Rain = 0
KBO1 141128Z 35016G21KT 00/M01 A3008 RMK A01 T00011005  RH  096%=      5-min Rain = 0
KBO1 141129Z 35015KT 00/M01 A3008 RMK A01 T00011005  RH  096%=      5-min Rain = 0
KBO1 141130Z 35014KT 00/M01 A3008 RMK A01 T00011005  RH  096%=      5-min Rain = 0
KBO1 141131Z 35014KT 00/M01 A3008 RMK A01 T00011005  RH  096%=      5-min Rain = 0
KBO1 141132Z 35015KT 00/M01 A3008 RMK A01 T00011006  RH  096%=      5-min Rain = 0
KBO1 141133Z 35013KT 00/M01 A3008 RMK A01 T00011005  RH  096%=      5-min Rain = 0
KBO1 141134Z 35014KT 00/M01 A3008 RMK A01 T00011005  RH  096%=      5-min Rain = 0
KBO1 141135Z 35015KT 00/01 A3008 RMK A01 T000000-6  RH  096%=      5-min Rain = 0
KBO1 141136Z 35013KT 00/M01 A3008 RMK A01 T00011005  RH  096%=      5-min Rain = 0
KBO1 141137Z 35014KT 00/M01 A3008 RMK A01 T00011005  RH  096%=      5-min Rain = 0
KBO1 141138Z 35016KT 00/M01 A3008 RMK A01 T00011005  RH  096%=      5-min Rain = 0
KBO1 141139Z 35015KT 00/M01 A3008 RMK A01 T00011005  RH  096%=      5-min Rain = 0
KBO1 141140Z 35015KT 00/M01 A3009 RMK A01 T00011005  RH  096%=      5-min Rain = 0
KBO1 141141Z 35014KT 00/01 A3009 RMK A01 T000000-6  RH  096%=      5-min Rain = 0
KBO1 141142Z 35015KT 00/01 A3009 RMK A01 T00-000-6  RH  096%=      5-min Rain = 0
KBO1 141143Z 35014KT 00/01 A3009 RMK A01 T000000-6  RH  096%=      5-min Rain = 0
KBO1 141144Z 35015KT 00/01 A3009 RMK A01 T000000-6  RH  096%=      5-min Rain = 0
KBO1 141145Z 35013KT 00/01 A3009 RMK A01 T000000-6  RH  096%=      5-min Rain = 0
KBO1 141146Z 34014KT 00/01 A3009 RMK A01 T000000-6  RH  096%=      5-min Rain = 0
KBO1 141147Z 34015KT 00/01 A3009 RMK A01 T000000-6  RH  096%=      5-min Rain = 0
KBO1 141148Z 34014KT 00/01 A3009 RMK A01 T000000-6  RH  096%=      5-min Rain = 0
KBO1 141149Z 34013KT 00/01 A3009 RMK A01 T000000-5  RH  096%=      5-min Rain = 0
KBO1 141150Z 34015KT 00/01 A3009 RMK A01 T000000-5  RH  096%=      5-min Rain = 0
KBO1 141151Z 34013KT 00/01 A3009 RMK A01 T000000-6  RH  096%=      5-min Rain = 0
KBO1 141152Z 34014KT 00/01 A3009 RMK A01 T00-000-6  RH  096%=      5-min Rain = 0
KBO1 141153Z 34014KT 00/01 A3009 RMK A01 T00-000-6  RH  096%=      5-min Rain = 0
KBO1 141154Z 35015KT 00/01 A3009 RMK A01 T00-000-6  RH  096%=      5-min Rain = 0
KBO1 141155Z 35015KT 00/01 A3009 RMK A01 T00-000-6  RH  096%=      5-min Rain = 0
KBO1 141156Z 35014KT M00/M01 A3009 RMK A01 T10011006  RH  096%=      5-min Rain = 0
KBO1 141157Z 35015KT 00/01 A3009 RMK A01 T00-000-6  RH  096%=      5-min Rain = 0
KBO1 141158Z 35014KT 00/01 A3009 RMK A01 T00-000-6  RH  096%=      5-min Rain = 0
KBO1 141159Z 35016KT M00/M01 A3009 RMK A01 T10011006  RH  096%=      5-min Rain = 0
KBO1 141200Z 35015KT M00/M01 A3009 RMK A01 T10011006  RH  096%=      5-min Rain = 0
KBO1 141201Z 35016KT 00/01 A3009 RMK A01 T00-000-6  RH  096%=      5-min Rain = 0
KBO1 141202Z 35016KT 00/01 A3009 RMK A01 T000000-5  RH  096%=      5-min Rain = 0
KBO1 141203Z 35017KT 00/01 A3009 RMK A01 T000000-5  RH  096%=      5-min Rain = 0
KBO1 141204Z 35018KT 00/M01 A3009 RMK A01 T00011005  RH  096%=      5-min Rain = 0
KBO1 141205Z 35015KT 00/M01 A3009 RMK A01 T00011005  RH  096%=      5-min Rain = 0
KBO1 141206Z 35014KT 00/M00 A3009 RMK A01 T00011004  RH  096%=      5-min Rain = 0
KBO1 141207Z 35016KT 00/M00 A3009 RMK A01 T00011004  RH  096%=      5-min Rain = 0
KBO1 141208Z 35016KT 00/M00 A3009 RMK A01 T00011004  RH  096%=      5-min Rain = 0
KBO1 141209Z 35015KT 00/M00 A3009 RMK A01 T00011004  RH  096%=      5-min Rain = 0
KBO1 141210Z 35016KT 00/M00 A3009 RMK A01 T00011004  RH  096%=      5-min Rain = 0
KBO1 141211Z 35016KT 00/M00 A3009 RMK A01 T00011004  RH  096%=      5-min Rain = 0
KBO1 141212Z 35018KT 00/M00 A3009 RMK A01 T00011004  RH  096%=      5-min Rain = 0
KBO1 141213Z 35017KT 00/M00 A3009 RMK A01 T00021004  RH  096%=      5-min Rain = 0
KBO1 141214Z 35019KT 00/M00 A3009 RMK A01 T00021004  RH  096%=      5-min Rain = 0
KBO1 141215Z 35020G26KT 00/M00 A3009 RMK A01 T00021004  RH  096%=      5-min Rain = 0
KBO1 141216Z 35021KT 00/M00 A3009 RMK A01 T00021003  RH  096%=      5-min Rain = 0
KBO1 141217Z 36018KT 00/M00 A3009 RMK A01 T00031003  RH  096%=      5-min Rain = 0
KBO1 141218Z 36020G25KT 00/M00 A3009 RMK A01 T00031003  RH  096%=      5-min Rain = 0
KBO1 141219Z 00025G31KT 00/M00 A3009 RMK A01 T00031003  RH  096%=      5-min Rain = 0
KBO1 141220Z 00023KT 00/M00 A3009 RMK A01 T00031003  RH  096%=      5-min Rain = 0
KBO1 141221Z 36021G26KT 00/M00 A3009 RMK A01 T00031003  RH  096%=      5-min Rain = 0
KBO1 141222Z 36024KT 00/M00 A3009 RMK A01 T00031003  RH  096%=      5-min Rain = 0
KBO1 141223Z 35023G29KT 00/M00 A3009 RMK A01 T00031003  RH  095%=      5-min Rain = 0
KBO1 141224Z 00023G28KT 00/M00 A3009 RMK A01 T00041003  RH  095%=      5-min Rain = 0
KBO1 141225Z 36023KT 00/M00 A3009 RMK A01 T00041004  RH  095%=      5-min Rain = 0
KBO1 141226Z 35023KT 00/M00 A3009 RMK A01 T00041004  RH  095%=      5-min Rain = 0
KBO1 141227Z 36023KT 00/M00 A3009 RMK A01 T00041004  RH  094%=      5-min Rain = 0
KBO1 141228Z 00022G28KT 00/M00 A3009 RMK A01 T00041004  RH  094%=      5-min Rain = 0
KBO1 141229Z 36021G26KT 00/M01 A3009 RMK A01 T00041005  RH  094%=      5-min Rain = 0
KBO1 141230Z 36022KT 00/M01 A3009 RMK A01 T00041005  RH  094%=      5-min Rain = 0
KBO1 141231Z 00019KT 00/M01 A3009 RMK A01 T00041006  RH  094%=      5-min Rain = 0
KBO1 141232Z 00022KT 00/M01 A3009 RMK A01 T00041006  RH  093%=      5-min Rain = 0
KBO1 141233Z 36022G27KT 00/M01 A3009 RMK A01 T00041006  RH  093%=      5-min Rain = 0
KBO1 141234Z 35021G27KT 00/M01 A3009 RMK A01 T00041006  RH  093%=      5-min Rain = 0
KBO1 141235Z 36020KT 01/M01 A3009 RMK A01 T00051007  RH  092%=      5-min Rain = 0
KBO1 141236Z 36018G24KT 01/M01 A3009 RMK A01 T00051007  RH  092%=      5-min Rain = 0
KBO1 141237Z 35018G23KT 01/M01 A3009 RMK A01 T00051007  RH  092%=      5-min Rain = 0
KBO1 141238Z 35019KT 01/M01 A3009 RMK A01 T00051007  RH  092%=      5-min Rain = 0
KBO1 141239Z 36020KT 01/M01 A3009 RMK A01 T00051007  RH  092%=      5-min Rain = 0
KBO1 141240Z 36019KT 01/M01 A3009 RMK A01 T00051007  RH  092%=      5-min Rain = 0
KBO1 141241Z 00019G24KT 01/M01 A3009 RMK A01 T00051007  RH  091%=      5-min Rain = 0
KBO1 141242Z 36019KT 01/M01 A3009 RMK A01 T00061008  RH  091%=      5-min Rain = 0.01
KBO1 141243Z 35019KT 01/M01 A3009 RMK A01 T00061008  RH  091%=      5-min Rain = 0
KBO1 141244Z 36019KT 01/M01 A3009 RMK A01 T00061008  RH  090%=      5-min Rain = 0
KBO1 141245Z 35018G23KT 01/M01 A3009 RMK A01 T00061008  RH  090%=      5-min Rain = 0
KBO1 141246Z 35017KT 01/M01 A3009 RMK A01 T00061008  RH  090%=      5-min Rain = 0
KBO1 141247Z 36017KT 01/M01 A3009 RMK A01 T00061008  RH  090%=      5-min Rain = 0
KBO1 141248Z 36018KT 01/M01 A3009 RMK A01 T00061008  RH  090%=      5-min Rain = 0
KBO1 141249Z 35017G22KT 01/M01 A3009 RMK A01 T00051009  RH  090%=      5-min Rain = 0
KBO1 141250Z 00018KT 01/M01 A3009 RMK A01 T00061009  RH  090%=      5-min Rain = 0
KBO1 141251Z 36018KT 01/M01 A3009 RMK A01 T00061009  RH  090%=      5-min Rain = 0
KBO1 141252Z 00018KT 01/M01 A3009 RMK A01 T00061010  RH  089%=      5-min Rain = 0
KBO1 141253Z 00017G22KT 01/M01 A3009 RMK A01 T00061010  RH  089%=      5-min Rain = 0
KBO1 141254Z 36020KT 01/M01 A301 RMK A01 T00061010  RH  089%=      5-min Rain = 0
KBO1 141255Z 00021G26KT 01/M01 A301 RMK A01 T00071011  RH  088%=      5-min Rain = 0
KBO1 141256Z 01020KT 01/M01 A301 RMK A01 T00071012  RH  088%=      5-min Rain = 0
KBO1 141257Z 01020KT 01/M01 A301 RMK A01 T00071012  RH  087%=      5-min Rain = 0
KBO1 141258Z 00018G23KT 01/M01 A301 RMK A01 T00071012  RH  087%=      5-min Rain = 0
KBO1 141259Z 00018KT 01/M01 A301 RMK A01 T00071012  RH  087%=      5-min Rain = 0
KBO1 141300Z 00016G22KT 01/M01 A301 RMK A01 T00071012  RH  087%=      5-min Rain = 0
KBO1 141301Z 00019KT 01/M01 A301 RMK A01 T00071012  RH  087%=      5-min Rain = 0
KBO1 141302Z 00017KT 01/M01 A301 RMK A01 T00071012  RH  087%=      5-min Rain = 0
KBO1 141303Z 00018KT 01/M01 A301 RMK A01 T00071012  RH  087%=      5-min Rain = 0
KBO1 141304Z 00016KT 01/M01 A301 RMK A01 T00071012  RH  087%=      5-min Rain = 0
KBO1 141305Z 01016KT 01/M01 A301 RMK A01 T00061012  RH  087%=      5-min Rain = 0
KBO1 141306Z 00017KT 01/M01 A301 RMK A01 T00061012  RH  087%=      5-min Rain = 0
KBO1 141307Z 00017KT 01/M01 A301 RMK A01 T00061012  RH  087%=      5-min Rain = 0
KBO1 141308Z 00017KT 01/M01 A301 RMK A01 T00061013  RH  087%=      5-min Rain = 0
KBO1 141309Z 00016KT 01/M01 A301 RMK A01 T00061013  RH  087%=      5-min Rain = 0
KBO1 141310Z 00016KT 01/M01 A301 RMK A01 T00071013  RH  087%=      5-min Rain = 0
KBO1 141311Z 00015KT 01/M01 A301 RMK A01 T00071012  RH  087%=      5-min Rain = 0.01
KBO1 141312Z 01016KT 01/M01 A3011 RMK A01 T00071012  RH  087%=      5-min Rain = 0
KBO1 141313Z 00015KT 01/M01 A3011 RMK A01 T00061012  RH  087%=      5-min Rain = 0
KBO1 141314Z 00015KT 01/M01 A3011 RMK A01 T00061012  RH  087%=      5-min Rain = 0
KBO1 141315Z 00014KT 01/M01 A3011 RMK A01 T00061013  RH  087%=      5-min Rain = 0
KBO1 141316Z 00016KT 01/M01 A3011 RMK A01 T00061013  RH  087%=      5-min Rain = 0
KBO1 141317Z 00015KT 01/M01 A3011 RMK A01 T00061013  RH  087%=      5-min Rain = 0
KBO1 141318Z 00016KT 01/M01 A3011 RMK A01 T00071012  RH  087%=      5-min Rain = 0
KBO1 141319Z 00016KT 01/M01 A3011 RMK A01 T00071012  RH  087%=      5-min Rain = 0
KBO1 141320Z 01016KT 01/M01 A3011 RMK A01 T00071013  RH  087%=      5-min Rain = 0
KBO1 141321Z 00013G18KT 01/M01 A3011 RMK A01 T00061013  RH  087%=      5-min Rain = 0
KBO1 141322Z 01015KT 01/M01 A3011 RMK A01 T00061013  RH  087%=      5-min Rain = 0
KBO1 141323Z 00015KT 01/M01 A3011 RMK A01 T00061013  RH  087%=      5-min Rain = 0
KBO1 141324Z 00017KT 01/M01 A3011 RMK A01 T00061013  RH  087%=      5-min Rain = 0
KBO1 141325Z 01016KT 01/M01 A3011 RMK A01 T00071013  RH  087%=      5-min Rain = 0
KBO1 141326Z 00015KT 01/M01 A3011 RMK A01 T00071013  RH  086%=      5-min Rain = 0
KBO1 141327Z 00016KT 01/M01 A3011 RMK A01 T00071013  RH  086%=      5-min Rain = 0
KBO1 141328Z 00015KT 01/M01 A3011 RMK A01 T00071013  RH  087%=      5-min Rain = 0
KBO1 141329Z 01014KT 01/M01 A3011 RMK A01 T00071012  RH  087%=      5-min Rain = 0
KBO1 141330Z 01014KT 01/M01 A3012 RMK A01 T00061012  RH  087%=      5-min Rain = 0
KBO1 141331Z 01014KT 01/M01 A3012 RMK A01 T00061012  RH  087%=      5-min Rain = 0
KBO1 141332Z 01013KT 01/M01 A3012 RMK A01 T00061012  RH  087%=      5-min Rain = 0
KBO1 141333Z 01014KT 01/M01 A3012 RMK A01 T00061012  RH  087%=      5-min Rain = 0
KBO1 141334Z 01013KT 01/M01 A3012 RMK A01 T00061012  RH  088%=      5-min Rain = 0
KBO1 141335Z 00014KT 01/M01 A3012 RMK A01 T00061012  RH  087%=      5-min Rain = 0
KBO1 141336Z 01012KT 01/M01 A3012 RMK A01 T00061013  RH  087%=      5-min Rain = 0
KBO1 141337Z 00013KT 01/M01 A3012 RMK A01 T00061012  RH  088%=      5-min Rain = 0
KBO1 141338Z 00012KT 01/M01 A3012 RMK A01 T00061012  RH  088%=      5-min Rain = 0
KBO1 141339Z 01014KT 01/M01 A3012 RMK A01 T00061012  RH  088%=      5-min Rain = 0
KBO1 141340Z 01013KT 01/M01 A3012 RMK A01 T00061012  RH  088%=      5-min Rain = 0
KBO1 141341Z 01014KT 01/M01 A3012 RMK A01 T00061013  RH  088%=      5-min Rain = 0
KBO1 141342Z 00014KT 01/M01 A3012 RMK A01 T00061013  RH  087%=      5-min Rain = 0
KBO1 141343Z 01015KT 01/M01 A3013 RMK A01 T00061013  RH  087%=      5-min Rain = 0
KBO1 141344Z 01016KT 01/M01 A3013 RMK A01 T00061013  RH  087%=      5-min Rain = 0
KBO1 141345Z 01014KT 01/M01 A3013 RMK A01 T00061013  RH  087%=      5-min Rain = 0
KBO1 141346Z 01016KT 01/M01 A3013 RMK A01 T00061013  RH  087%=      5-min Rain = 0
KBO1 141347Z 01017KT 01/M01 A3013 RMK A01 T00061013  RH  087%=      5-min Rain = 0
KBO1 141348Z 01016KT 01/M01 A3013 RMK A01 T00061013  RH  087%=      5-min Rain = 0.01
KBO1 141349Z 02018KT 01/M01 A3013 RMK A01 T00061013  RH  087%=      5-min Rain = 0
KBO1 141350Z 01016KT 01/M01 A3013 RMK A01 T00061013  RH  087%=      5-min Rain = 0
KBO1 141351Z 02014KT 01/M01 A3013 RMK A01 T00061013  RH  087%=      5-min Rain = 0
KBO1 141352Z 02016KT 01/M01 A3013 RMK A01 T00051012  RH  088%=      5-min Rain = 0
KBO1 141353Z 02015KT 01/M01 A3013 RMK A01 T00051012  RH  089%=      5-min Rain = 0
KBO1 141354Z 02015KT 01/M01 A3013 RMK A01 T00051011  RH  089%=      5-min Rain = 0
KBO1 141355Z 02017KT 00/M01 A3013 RMK A01 T00041011  RH  090%=      5-min Rain = 0
KBO1 141356Z 01015KT 00/M01 A3013 RMK A01 T00041011  RH  090%=      5-min Rain = 0
KBO1 141357Z 01015KT 00/M01 A3013 RMK A01 T00041011  RH  090%=      5-min Rain = 0
KBO1 141358Z 01016KT 00/M01 A3013 RMK A01 T00031011  RH  090%=      5-min Rain = 0
KBO1 141359Z 01015KT 00/M01 A3013 RMK A01 T00031010  RH  091%=      5-min Rain = 0
KBO1 141400Z 01017KT 00/M01 A3013 RMK A01 T00031010  RH  091%=      5-min Rain = 0
KBO1 141401Z 01018KT 00/M01 A3013 RMK A01 T00021011  RH  091%=      5-min Rain = 0
KBO1 141402Z 01016G21KT 00/M01 A3013 RMK A01 T00021011  RH  091%=      5-min Rain = 0
KBO1 141403Z 01015KT 00/M01 A3013 RMK A01 T00021011  RH  091%=      5-min Rain = 0
KBO1 141404Z 00017KT 00/M01 A3013 RMK A01 T00021011  RH  091%=      5-min Rain = 0
KBO1 141405Z 01019KT 00/M01 A3013 RMK A01 T00021011  RH  091%=      5-min Rain = 0
KBO1 141406Z 01018KT 00/M01 A3013 RMK A01 T00011011  RH  091%=      5-min Rain = 0
KBO1 141407Z 01018KT 00/M01 A3013 RMK A01 T00011011  RH  091%=      5-min Rain = 0
KBO1 141408Z 00016G21KT 00/M01 A3013 RMK A01 T00011011  RH  091%=      5-min Rain = 0
KBO1 141409Z 01018KT 00/M01 A3014 RMK A01 T00011011  RH  092%=      5-min Rain = 0
KBO1 141410Z 01014KT 00/M01 A3014 RMK A01 T00011011  RH  092%=      5-min Rain = 0
KBO1 141411Z 01017KT 00/M01 A3014 RMK A01 T00011011  RH  092%=      5-min Rain = 0
KBO1 141412Z 00017KT 00/M01 A3014 RMK A01 T00011011  RH  092%=      5-min Rain = 0
KBO1 141413Z 00015KT 00/01 A3014 RMK A01 T00000-12  RH  091%=      5-min Rain = 0
KBO1 141414Z 01015KT 00/M01 A3014 RMK A01 T00011012  RH  091%=      5-min Rain = 0
KBO1 141415Z 00015KT 00/M01 A3014 RMK A01 T00011012  RH  091%=      5-min Rain = 0
KBO1 141416Z 00015KT 00/M01 A3014 RMK A01 T00011012  RH  091%=      5-min Rain = 0
KBO1 141417Z 01017KT 00/M01 A3014 RMK A01 T00011012  RH  091%=      5-min Rain = 0
KBO1 141418Z 36018KT 00/M01 A3014 RMK A01 T00021013  RH  090%=      5-min Rain = 0
KBO1 141419Z 00017KT 00/M01 A3014 RMK A01 T00021014  RH  089%=      5-min Rain = 0
KBO1 141420Z 00019KT 00/M02 A3014 RMK A01 T00021015  RH  088%=      5-min Rain = 0
KBO1 141421Z 01017G22KT 00/M02 A3014 RMK A01 T00031015  RH  088%=      5-min Rain = 0
KBO1 141422Z 00018G23KT 00/M02 A3014 RMK A01 T00031015  RH  087%=      5-min Rain = 0
KBO1 141423Z 01017G22KT 00/M02 A3014 RMK A01 T00031016  RH  087%=      5-min Rain = 0
KBO1 141424Z 01020G27KT 00/M02 A3014 RMK A01 T00031016  RH  087%=      5-min Rain = 0
KBO1 141425Z 01018G24KT 00/M02 A3014 RMK A01 T00031017  RH  086%=      5-min Rain = 0
KBO1 141426Z 00023KT 00/M02 A3014 RMK A01 T00031018  RH  086%=      5-min Rain = 0.01
KBO1 141427Z 01023KT 00/M02 A3014 RMK A01 T00041018  RH  085%=      5-min Rain = 0
KBO1 141428Z 01021KT 00/M02 A3014 RMK A01 T00041019  RH  084%=      5-min Rain = 0
KBO1 141429Z 01021KT 00/M02 A3014 RMK A01 T00041019  RH  084%=      5-min Rain = 0
KBO1 141430Z 01021KT 00/M02 A3014 RMK A01 T00041019  RH  084%=      5-min Rain = 0
KBO1 141431Z 00022KT 00/M02 A3014 RMK A01 T00041019  RH  085%=      5-min Rain = 0
KBO1 141432Z 00024KT 00/M02 A3014 RMK A01 T00041019  RH  085%=      5-min Rain = 0
KBO1 141433Z 01023KT 00/M02 A3014 RMK A01 T00041020  RH  084%=      5-min Rain = 0
KBO1 141434Z 00021KT 00/M02 A3014 RMK A01 T00041019  RH  084%=      5-min Rain = 0
KBO1 141435Z 01019KT 00/M02 A3014 RMK A01 T00031019  RH  085%=      5-min Rain = 0
KBO1 141436Z 00021KT 00/M02 A3014 RMK A01 T00031019  RH  085%=      5-min Rain = 0
KBO1 141437Z 00021G26KT 00/M02 A3014 RMK A01 T00031018  RH  086%=      5-min Rain = 0
KBO1 141438Z 00018KT 00/M02 A3014 RMK A01 T00031018  RH  086%=      5-min Rain = 0
KBO1 141439Z 01020KT 00/M02 A3014 RMK A01 T00031017  RH  086%=      5-min Rain = 0
KBO1 141440Z 00021KT 00/M02 A3014 RMK A01 T00031018  RH  086%=      5-min Rain = 0
KBO1 141441Z 01021KT 00/M02 A3014 RMK A01 T00031018  RH  086%=      5-min Rain = 0
KBO1 141442Z 01022KT 00/M02 A3014 RMK A01 T00031018  RH  086%=      5-min Rain = 0
KBO1 141443Z 00022KT 00/M02 A3014 RMK A01 T00031019  RH  085%=      5-min Rain = 0
KBO1 141444Z 01022G28KT 00/M02 A3014 RMK A01 T00031019  RH  085%=      5-min Rain = 0
KBO1 141445Z 01022G27KT 00/M02 A3015 RMK A01 T00031019  RH  085%=      5-min Rain = 0
KBO1 141446Z 01023G28KT 00/M02 A3015 RMK A01 T00031019  RH  085%=      5-min Rain = 0
KBO1 141447Z 01023KT 00/M02 A3015 RMK A01 T00031019  RH  085%=      5-min Rain = 0
KBO1 141448Z 01021G27KT 00/M02 A3015 RMK A01 T00031019  RH  086%=      5-min Rain = 0
KBO1 141449Z 01027KT 00/M02 A3015 RMK A01 T00021019  RH  086%=      5-min Rain = 0
KBO1 141450Z 00021KT 00/M02 A3015 RMK A01 T00021019  RH  086%=      5-min Rain = 0
KBO1 141451Z 01023G28KT 00/M02 A3015 RMK A01 T00021019  RH  086%=      5-min Rain = 0
KBO1 141452Z 01023G30KT 00/M02 A3015 RMK A01 T00011018  RH  087%=      5-min Rain = 0
KBO1 141453Z 01022KT 00/M02 A3015 RMK A01 T00011018  RH  087%=      5-min Rain = 0
KBO1 141454Z 01021KT 00/M02 A3015 RMK A01 T00011018  RH  087%=      5-min Rain = 0
KBO1 141455Z 01023KT 00/M02 A3015 RMK A01 T00011018  RH  087%=      5-min Rain = 0
KBO1 141456Z 01023KT 00/M02 A3015 RMK A01 T00011018  RH  087%=      5-min Rain = 0
KBO1 141457Z 01024KT 00/M02 A3015 RMK A01 T00011018  RH  087%=      5-min Rain = 0
KBO1 141458Z 00019KT 00/M02 A3015 RMK A01 T00011018  RH  087%=      5-min Rain = 0
KBO1 141459Z 00023KT 00/M02 A3015 RMK A01 T00011017  RH  087%=      5-min Rain = 0
KBO1 141500Z 00022G27KT 00/M02 A3015 RMK A01 T00011017  RH  087%=      5-min Rain = 0
KBO1 141501Z 00020KT 00/M02 A3015 RMK A01 T00011017  RH  087%=      5-min Rain = 0
KBO1 141502Z 36019KT 00/M02 A3015 RMK A01 T00011018  RH  087%=      5-min Rain = 0
KBO1 141503Z 36018KT 00/M02 A3015 RMK A01 T00011017  RH  087%=      5-min Rain = 0
KBO1 141504Z 35019KT 00/M02 A3015 RMK A01 T00011017  RH  087%=      5-min Rain = 0
KBO1 141505Z 36020G26KT 00/M02 A3015 RMK A01 T00011018  RH  087%=      5-min Rain = 0
KBO1 141506Z 35019G24KT 00/M02 A3015 RMK A01 T00021018  RH  087%=      5-min Rain = 0
KBO1 141507Z 00019KT 00/M02 A3016 RMK A01 T00021018  RH  087%=      5-min Rain = 0
KBO1 141508Z 36025KT 00/M02 A3016 RMK A01 T00021018  RH  086%=      5-min Rain = 0
KBO1 141509Z 36025KT 00/M02 A3016 RMK A01 T00021020  RH  085%=      5-min Rain = 0
KBO1 141510Z 36023KT 00/M02 A3015 RMK A01 T00021021  RH  085%=      5-min Rain = 0
KBO1 141511Z 36018G23KT 00/M02 A3016 RMK A01 T00021020  RH  085%=      5-min Rain = 0
KBO1 141512Z 36017KT 00/M02 A3016 RMK A01 T00021018  RH  086%=      5-min Rain = 0
KBO1 141513Z 00020G25KT 00/M02 A3016 RMK A01 T00021018  RH  087%=      5-min Rain = 0
KBO1 141514Z 36023KT 00/M02 A3016 RMK A01 T00021019  RH  086%=      5-min Rain = 0
KBO1 141515Z 35019KT 00/M02 A3016 RMK A01 T00021019  RH  086%=      5-min Rain = 0
KBO1 141516Z 36021G30KT 00/M02 A3016 RMK A01 T00021019  RH  086%=      5-min Rain = 0
KBO1 141517Z 36022KT 00/M02 A3016 RMK A01 T00021019  RH  086%=      5-min Rain = 0.01
KBO1 141518Z 36021KT 00/M02 A3016 RMK A01 T00021020  RH  085%=      5-min Rain = 0
KBO1 141519Z 00018KT 00/M02 A3016 RMK A01 T00031019  RH  085%=      5-min Rain = 0
KBO1 141520Z 36018G26KT 00/M02 A3016 RMK A01 T00031018  RH  086%=      5-min Rain = 0
KBO1 141521Z 36025KT 00/M02 A3016 RMK A01 T00021018  RH  087%=      5-min Rain = 0
KBO1 141522Z 35022KT 00/M02 A3016 RMK A01 T00021019  RH  086%=      5-min Rain = 0
KBO1 141523Z 35025KT 00/M02 A3016 RMK A01 T00031019  RH  086%=      5-min Rain = 0
KBO1 141524Z 35020G25KT 00/M02 A3016 RMK A01 T00031019  RH  085%=      5-min Rain = 0
KBO1 141525Z 35022G28KT 00/M02 A3016 RMK A01 T00031018  RH  086%=      5-min Rain = 0
KBO1 141526Z 35027KT 00/M02 A3016 RMK A01 T00031018  RH  086%=      5-min Rain = 0
KBO1 141527Z 36024KT 00/M02 A3016 RMK A01 T00031018  RH  086%=      5-min Rain = 0
KBO1 141528Z 35020KT 00/M02 A3016 RMK A01 T00031017  RH  086%=      5-min Rain = 0
KBO1 141529Z 35020KT 00/M02 A3016 RMK A01 T00021016  RH  087%=      5-min Rain = 0
KBO1 141530Z 35019KT 00/M02 A3016 RMK A01 T00021015  RH  088%=      5-min Rain = 0
KBO1 141531Z 35020KT 00/M01 A3016 RMK A01 T00021014  RH  089%=      5-min Rain = 0
KBO1 141532Z 35022KT 00/M01 A3016 RMK A01 T00011014  RH  089%=      5-min Rain = 0
KBO1 141533Z 35023KT 00/M01 A3016 RMK A01 T00021014  RH  089%=      5-min Rain = 0
KBO1 141534Z 35023KT 00/M01 A3016 RMK A01 T00021014  RH  089%=      5-min Rain = 0
KBO1 141535Z 35019KT 00/M01 A3016 RMK A01 T00011014  RH  090%=      5-min Rain = 0
KBO1 141536Z 35016KT 00/M01 A3016 RMK A01 T00011013  RH  090%=      5-min Rain = 0
KBO1 141537Z 36015KT 00/M01 A3016 RMK A01 T00011013  RH  091%=      5-min Rain = 0
KBO1 141538Z 35015G22KT 00/01 A3016 RMK A01 T00000-13  RH  091%=      5-min Rain = 0
KBO1 141539Z 35022G27KT 00/01 A3016 RMK A01 T00-00-12  RH  091%=      5-min Rain = 0
KBO1 141540Z 35021KT M00/M01 A3016 RMK A01 T10011013  RH  092%=      5-min Rain = 0
KBO1 141541Z 35019KT 00/01 A3016 RMK A01 T00-00-13  RH  091%=      5-min Rain = 0
KBO1 141542Z 35021KT M00/M01 A3016 RMK A01 T10011013  RH  091%=      5-min Rain = 0
KBO1 141543Z 34020KT M00/M01 A3016 RMK A01 T10011013  RH  092%=      5-min Rain = 0
KBO1 141544Z 35016KT 00/01 A3016 RMK A01 T00-00-12  RH  092%=      5-min Rain = 0
KBO1 141545Z 35020KT 00/01 A3016 RMK A01 T00-00-12  RH  092%=      5-min Rain = 0
KBO1 141546Z 34019KT M00/M01 A3016 RMK A01 T10011012  RH  092%=      5-min Rain = 0
KBO1 141547Z 35020KT M00/M01 A3016 RMK A01 T10011012  RH  092%=      5-min Rain = 0
KBO1 141548Z 35022KT M00/M01 A3016 RMK A01 T10011012  RH  092%=      5-min Rain = 0
KBO1 141549Z 35017G23KT M00/M01 A3016 RMK A01 T10011012  RH  092%=      5-min Rain = 0
KBO1 141550Z 35019KT M00/M01 A3016 RMK A01 T10011012  RH  092%=      5-min Rain = 0
KBO1 141551Z 35018KT M00/M01 A3016 RMK A01 T10011012  RH  093%=      5-min Rain = 0
KBO1 141552Z 35017KT M00/M01 A3016 RMK A01 T10011011  RH  093%=      5-min Rain = 0
KBO1 141553Z 35015KT M00/M01 A3016 RMK A01 T10011011  RH  093%=      5-min Rain = 0
KBO1 141554Z 35017KT M00/M01 A3016 RMK A01 T10011011  RH  093%=      5-min Rain = 0
KBO1 141555Z 35020KT M00/M01 A3016 RMK A01 T10011011  RH  093%=      5-min Rain = 0
KBO1 141556Z 35018G23KT M00/M01 A3016 RMK A01 T10011011  RH  093%=      5-min Rain = 0
KBO1 141557Z 35018KT M00/M01 A3016 RMK A01 T10011010  RH  093%=      5-min Rain = 0
KBO1 141558Z 35018KT M00/M01 A3016 RMK A01 T10011010  RH  093%=      5-min Rain = 0
KBO1 141559Z 35016KT M00/M01 A3016 RMK A01 T10011010  RH  093%=      5-min Rain = 0
KBO1 141600Z 35016KT M00/M01 A3017 RMK A01 T10011010  RH  093%=      5-min Rain = 0
KBO1 141601Z 35017KT M00/M01 A3017 RMK A01 T10011010  RH  094%=      5-min Rain = 0
KBO1 141602Z 35017KT M00/M01 A3017 RMK A01 T10011010  RH  094%=      5-min Rain = 0
KBO1 141603Z 36019KT M00/M01 A3017 RMK A01 T10011010  RH  094%=      5-min Rain = 0
KBO1 141604Z 35019KT M00/M01 A3017 RMK A01 T10011010  RH  094%=      5-min Rain = 0
KBO1 141605Z 35020KT M00/M01 A3017 RMK A01 T10011010  RH  094%=      5-min Rain = 0
KBO1 141606Z 36018KT M00/M01 A3017 RMK A01 T10011010  RH  094%=      5-min Rain = 0
KBO1 141607Z 00019KT M00/M01 A3017 RMK A01 T10011010  RH  094%=      5-min Rain = 0
KBO1 141608Z 36017KT M00/M01 A3017 RMK A01 T10011010  RH  094%=      5-min Rain = 0
KBO1 141609Z 36015KT M00/M01 A3017 RMK A01 T10011011  RH  094%=      5-min Rain = 0
KBO1 141610Z 36014KT M00/M01 A3017 RMK A01 T10011010  RH  094%=      5-min Rain = 0
KBO1 141611Z 35017KT M00/M01 A3017 RMK A01 T10021010  RH  094%=      5-min Rain = 0
KBO1 141612Z 35019KT M00/M01 A3017 RMK A01 T10021011  RH  094%=      5-min Rain = 0
KBO1 141613Z 35016G21KT M00/M01 A3017 RMK A01 T10021011  RH  094%=      5-min Rain = 0
KBO1 141614Z 35015G20KT M00/M01 A3017 RMK A01 T10021011  RH  094%=      5-min Rain = 0
KBO1 141615Z 35017KT M00/M01 A3017 RMK A01 T10021011  RH  094%=      5-min Rain = 0
KBO1 141616Z 35018KT M00/M01 A3017 RMK A01 T10021010  RH  094%=      5-min Rain = 0
KBO1 141617Z 36017KT M00/M01 A3017 RMK A01 T10031011  RH  094%=      5-min Rain = 0
KBO1 141618Z 35016KT M00/M01 A3017 RMK A01 T10031011  RH  094%=      5-min Rain = 0
KBO1 141619Z 35019KT M00/M01 A3017 RMK A01 T10031011  RH  094%=      5-min Rain = 0
KBO1 141620Z 36019KT M00/M01 A3017 RMK A01 T10031011  RH  094%=      5-min Rain = 0
KBO1 141621Z 35016KT M00/M01 A3017 RMK A01 T10031011  RH  094%=      5-min Rain = 0
KBO1 141622Z 35018KT M00/M01 A3017 RMK A01 T10031011  RH  094%=      5-min Rain = 0
KBO1 141623Z 35017KT M00/M01 A3017 RMK A01 T10031011  RH  094%=      5-min Rain = 0
KBO1 141624Z 36020KT M00/M01 A3017 RMK A01 T10031011  RH  094%=      5-min Rain = 0
KBO1 141625Z 35019KT M00/M01 A3017 RMK A01 T10031011  RH  094%=      5-min Rain = 0
KBO1 141626Z 35019KT M00/M01 A3017 RMK A01 T10031011  RH  094%=      5-min Rain = 0
KBO1 141627Z 35019KT M00/M01 A3017 RMK A01 T10031012  RH  094%=      5-min Rain = 0
KBO1 141628Z 36017KT M00/M01 A3017 RMK A01 T10031011  RH  094%=      5-min Rain = 0
KBO1 141629Z 36018KT M00/M01 A3017 RMK A01 T10021011  RH  094%=      5-min Rain = 0
KBO1 141630Z 36015KT M00/M01 A3017 RMK A01 T10021011  RH  094%=      5-min Rain = 0
KBO1 141631Z 36018KT M00/M01 A3017 RMK A01 T10021011  RH  094%=      5-min Rain = 0
KBO1 141632Z 36019KT M00/M01 A3017 RMK A01 T10021011  RH  094%=      5-min Rain = 0
KBO1 141633Z 36018KT M00/M01 A3017 RMK A01 T10021011  RH  094%=      5-min Rain = 0
KBO1 141634Z 36018KT M00/M01 A3017 RMK A01 T10021011  RH  094%=      5-min Rain = 0
KBO1 141635Z 35018KT M00/M01 A3017 RMK A01 T10021011  RH  094%=      5-min Rain = 0
KBO1 141636Z 35016KT M00/M01 A3017 RMK A01 T10021011  RH  094%=      5-min Rain = 0
KBO1 141637Z 35021KT M00/M01 A3017 RMK A01 T10021011  RH  094%=      5-min Rain = 0
KBO1 141638Z 35018KT M00/M01 A3017 RMK A01 T10021011  RH  094%=      5-min Rain = 0
KBO1 141639Z 35017KT M00/M01 A3017 RMK A01 T10021011  RH  094%=      5-min Rain = 0
KBO1 141640Z 36017KT M00/M01 A3017 RMK A01 T10021011  RH  094%=      5-min Rain = 0
KBO1 141641Z 36018KT M00/M01 A3017 RMK A01 T10021011  RH  094%=      5-min Rain = 0
KBO1 141642Z 36018KT M00/M01 A3017 RMK A01 T10021011  RH  094%=      5-min Rain = 0
KBO1 141643Z 36014KT M00/M01 A3017 RMK A01 T10021011  RH  094%=      5-min Rain = 0
KBO1 141644Z 36015KT M00/M01 A3017 RMK A01 T10021011  RH  094%=      5-min Rain = 0
KBO1 141645Z 36017KT M00/M01 A3017 RMK A01 T10021011  RH  094%=      5-min Rain = 0
KBO1 141646Z 36016KT M00/M01 A3017 RMK A01 T10021011  RH  094%=      5-min Rain = 0
KBO1 141647Z 35015KT M00/M01 A3017 RMK A01 T10021010  RH  094%=      5-min Rain = 0
KBO1 141648Z 36014KT M00/M01 A3017 RMK A01 T10021010  RH  094%=      5-min Rain = 0
KBO1 141649Z 36013KT M00/M01 A3017 RMK A01 T10021010  RH  094%=      5-min Rain = 0
KBO1 141650Z 00014KT M00/M01 A3018 RMK A01 T10011010  RH  094%=      5-min Rain = 0
KBO1 141651Z 00015KT M00/M01 A3018 RMK A01 T10011010  RH  094%=      5-min Rain = 0
KBO1 141652Z 00015KT M00/M01 A3018 RMK A01 T10011010  RH  094%=      5-min Rain = 0
KBO1 141653Z 01013KT M00/M01 A3018 RMK A01 T10011010  RH  094%=      5-min Rain = 0
KBO1 141654Z 00014KT M00/M01 A3018 RMK A01 T10021010  RH  094%=      5-min Rain = 0
KBO1 141655Z 00014KT M00/M01 A3018 RMK A01 T10011010  RH  094%=      5-min Rain = 0
KBO1 141656Z 01018KT M00/M01 A3018 RMK A01 T10011010  RH  094%=      5-min Rain = 0
KBO1 141657Z 00016KT M00/M01 A3018 RMK A01 T10011010  RH  093%=      5-min Rain = 0
KBO1 141658Z 36016KT M00/M01 A3018 RMK A01 T10011011  RH  093%=      5-min Rain = 0
KBO1 141659Z 36015KT M00/M01 A3018 RMK A01 T10011011  RH  093%=      5-min Rain = 0
KBO1 141700Z 36017KT M00/M01 A3018 RMK A01 T10011011  RH  093%=      5-min Rain = 0
KBO1 141701Z 36015KT M00/M01 A3018 RMK A01 T10011011  RH  093%=      5-min Rain = 0
KBO1 141702Z 00017KT M00/M01 A3018 RMK A01 T10011011  RH  093%=      5-min Rain = 0.01
KBO1 141703Z 00017KT 00/01 A3018 RMK A01 T00-00-11  RH  093%=      5-min Rain = 0
KBO1 141704Z 00016KT 00/01 A3018 RMK A01 T00-00-11  RH  092%=      5-min Rain = 0
KBO1 141705Z 00016KT 00/01 A3018 RMK A01 T00-00-11  RH  092%=      5-min Rain = 0
KBO1 141706Z 35013KT 00/01 A3018 RMK A01 T00000-11  RH  092%=      5-min Rain = 0
KBO1 141707Z 36013KT 00/01 A3018 RMK A01 T00000-10  RH  092%=      5-min Rain = 0
KBO1 141708Z 36016G21KT 00/01 A3018 RMK A01 T00000-10  RH  093%=      5-min Rain = 0
KBO1 141709Z 36016KT 00/M01 A3018 RMK A01 T00011010  RH  092%=      5-min Rain = 0
KBO1 141710Z 36016G21KT 00/01 A3018 RMK A01 T00000-11  RH  092%=      5-min Rain = 0
KBO1 141711Z 36017KT 00/01 A3018 RMK A01 T00000-11  RH  092%=      5-min Rain = 0
KBO1 141712Z 36016KT 00/01 A3018 RMK A01 T00000-11  RH  092%=      5-min Rain = 0
KBO1 141713Z 36017G22KT 00/01 A3018 RMK A01 T00000-11  RH  092%=      5-min Rain = 0
KBO1 141714Z 36020KT 00/01 A3018 RMK A01 T00000-12  RH  092%=      5-min Rain = 0
KBO1 141715Z 00020KT 00/01 A3018 RMK A01 T00000-12  RH  092%=      5-min Rain = 0
KBO1 141716Z 00020KT 00/01 A3018 RMK A01 T00000-13  RH  091%=      5-min Rain = 0
KBO1 141717Z 36018KT 00/01 A3018 RMK A01 T00000-13  RH  091%=      5-min Rain = 0.01
KBO1 141718Z 36020G25KT 00/M01 A3018 RMK A01 T00011012  RH  091%=      5-min Rain = 0
KBO1 141719Z 00020G25KT 00/M01 A3018 RMK A01 T00011012  RH  091%=      5-min Rain = 0
KBO1 141720Z 36019KT 00/M01 A3018 RMK A01 T00011013  RH  091%=      5-min Rain = 0
KBO1 141721Z 00018KT 00/M01 A3019 RMK A01 T00011012  RH  091%=      5-min Rain = 0
KBO1 141722Z 00021KT 00/M01 A3018 RMK A01 T00021012  RH  091%=      5-min Rain = 0
KBO1 141723Z 01023KT 00/M01 A3018 RMK A01 T00011013  RH  090%=      5-min Rain = 0
KBO1 141724Z 01024G29KT 00/M02 A3019 RMK A01 T00011015  RH  089%=      5-min Rain = 0
KBO1 141725Z 00021KT 00/M02 A3019 RMK A01 T00021015  RH  088%=      5-min Rain = 0
KBO1 141726Z 00022KT 00/M02 A3018 RMK A01 T00021015  RH  088%=      5-min Rain = 0
KBO1 141727Z 00021KT 00/M02 A3018 RMK A01 T00021016  RH  088%=      5-min Rain = 0
KBO1 141728Z 36020KT 00/M02 A3018 RMK A01 T00021015  RH  088%=      5-min Rain = 0
KBO1 141729Z 00019KT 00/M02 A3018 RMK A01 T00031015  RH  088%=      5-min Rain = 0
KBO1 141730Z 36020KT 00/M02 A3018 RMK A01 T00021015  RH  088%=      5-min Rain = 0
KBO1 141731Z 36023KT 00/M02 A3018 RMK A01 T00021015  RH  088%=      5-min Rain = 0
KBO1 141732Z 36022KT 00/M02 A3018 RMK A01 T00021015  RH  088%=      5-min Rain = 0
KBO1 141733Z 00021KT 00/M02 A3019 RMK A01 T00021015  RH  088%=      5-min Rain = 0
KBO1 141734Z 01024KT 00/M02 A3019 RMK A01 T00021016  RH  088%=      5-min Rain = 0
KBO1 141735Z 00020G26KT 00/M02 A3018 RMK A01 T00021016  RH  088%=      5-min Rain = 0
KBO1 141736Z 01023KT 00/M02 A3019 RMK A01 T00021015  RH  088%=      5-min Rain = 0
KBO1 141737Z 01022G27KT 00/M02 A3018 RMK A01 T00021015  RH  088%=      5-min Rain = 0.01
KBO1 141738Z 01019G24KT 00/M02 A3018 RMK A01 T00021016  RH  088%=      5-min Rain = 0
KBO1 141739Z 00020G25KT 00/M02 A3019 RMK A01 T00011015  RH  089%=      5-min Rain = 0
KBO1 141740Z 01021KT 00/M02 A3018 RMK A01 T00011015  RH  089%=      5-min Rain = 0
KBO1 141741Z 01022G28KT 00/M02 A3018 RMK A01 T00021015  RH  089%=      5-min Rain = 0
KBO1 141742Z 00023KT 00/M02 A3018 RMK A01 T00011015  RH  089%=      5-min Rain = 0
KBO1 141743Z 00021G27KT 00/M02 A3018 RMK A01 T00011016  RH  089%=      5-min Rain = 0
KBO1 141744Z 00021KT 00/02 A3018 RMK A01 T00000-15  RH  089%=      5-min Rain = 0
KBO1 141745Z 36021G26KT 00/M01 A3018 RMK A01 T00011014  RH  090%=      5-min Rain = 0
KBO1 141746Z 35025G30KT 00/M01 A3018 RMK A01 T00011014  RH  090%=      5-min Rain = 0
KBO1 141747Z 36023KT 00/M01 A3018 RMK A01 T00011014  RH  090%=      5-min Rain = 0
KBO1 141748Z 00021G27KT 00/M01 A3018 RMK A01 T00011014  RH  090%=      5-min Rain = 0
KBO1 141749Z 36021KT 00/M01 A3018 RMK A01 T00011013  RH  090%=      5-min Rain = 0
KBO1 141750Z 36024G29KT 00/M01 A3018 RMK A01 T00011013  RH  090%=      5-min Rain = 0
KBO1 141751Z 36025KT 00/M01 A3018 RMK A01 T00011013  RH  090%=      5-min Rain = 0
KBO1 141752Z 36018G27KT 00/M01 A3018 RMK A01 T00011014  RH  090%=      5-min Rain = 0
KBO1 141753Z 36019KT 00/M01 A3018 RMK A01 T00021012  RH  091%=      5-min Rain = 0.01
KBO1 141754Z 00022G27KT 00/M01 A3018 RMK A01 T00011012  RH  091%=      5-min Rain = 0
KBO1 141755Z 00022G27KT 00/M01 A3018 RMK A01 T00011013  RH  090%=      5-min Rain = 0
KBO1 141756Z 36019G24KT 00/M01 A3018 RMK A01 T00021012  RH  090%=      5-min Rain = 0
KBO1 141757Z 35018G25KT 00/M01 A3018 RMK A01 T00031012  RH  090%=      5-min Rain = 0
KBO1 141758Z 35021KT 00/M01 A3018 RMK A01 T00031011  RH  090%=      5-min Rain = 0
KBO1 141759Z 35022KT 00/M01 A3017 RMK A01 T00031012  RH  089%=      5-min Rain = 0
KBO1 141800Z 36023KT 00/M01 A3017 RMK A01 T00031014  RH  088%=      5-min Rain = 0
KBO1 141801Z 35023G29KT 00/M02 A3017 RMK A01 T00031015  RH  087%=      5-min Rain = 0
KBO1 141802Z 36021G27KT 00/M02 A3017 RMK A01 T00041016  RH  087%=      5-min Rain = 0
KBO1 141803Z 00020KT 00/M02 A3017 RMK A01 T00041016  RH  086%=      5-min Rain = 0
KBO1 141804Z 36020KT 01/M02 A3017 RMK A01 T00051015  RH  087%=      5-min Rain = 0
KBO1 141805Z 35019KT 01/M01 A3017 RMK A01 T00051014  RH  087%=      5-min Rain = 0
KBO1 141806Z 35022KT 01/M01 A3017 RMK A01 T00071013  RH  087%=      5-min Rain = 0
KBO1 141807Z 35025KT 01/M02 A3017 RMK A01 T00071015  RH  085%=      5-min Rain = 0
KBO1 141808Z 35021KT 01/M02 A3017 RMK A01 T00071016  RH  085%=      5-min Rain = 0
KBO1 141809Z 36022KT 01/M02 A3017 RMK A01 T00081015  RH  085%=      5-min Rain = 0
KBO1 141810Z 36022G27KT 01/M02 A3017 RMK A01 T00091015  RH  084%=      5-min Rain = 0
KBO1 141811Z 00022KT 01/M02 A3017 RMK A01 T00101016  RH  083%=      5-min Rain = 0.01
KBO1 141812Z 36022KT 01/M02 A3017 RMK A01 T00111016  RH  082%=      5-min Rain = 0
KBO1 141813Z 36024KT 01/M02 A3017 RMK A01 T00121016  RH  081%=      5-min Rain = 0
KBO1 141814Z 36021G26KT 01/M02 A3017 RMK A01 T00131018  RH  080%=      5-min Rain = 0
KBO1 141815Z 35021KT 01/M02 A3016 RMK A01 T00141016  RH  081%=      5-min Rain = 0
KBO1 141816Z 35020G25KT 02/M02 A3017 RMK A01 T00151016  RH  080%=      5-min Rain = 0
KBO1 141817Z 35019KT 02/M02 A3017 RMK A01 T00151016  RH  079%=      5-min Rain = 0
KBO1 141818Z 36018G23KT 02/M01 A3016 RMK A01 T00161014  RH  080%=      5-min Rain = 0
KBO1 141819Z 36023KT 02/M02 A3017 RMK A01 T00171015  RH  080%=      5-min Rain = 0
KBO1 141820Z 35023G29KT 02/M02 A3017 RMK A01 T00171018  RH  077%=      5-min Rain = 0
KBO1 141821Z 35022KT 02/M02 A3016 RMK A01 T00171020  RH  076%=      5-min Rain = 0
KBO1 141822Z 35024KT 02/M02 A3016 RMK A01 T00171022  RH  075%=      5-min Rain = 0
KBO1 141823Z 35023KT 02/M02 A3016 RMK A01 T00181023  RH  075%=      5-min Rain = 0
KBO1 141824Z 35020KT 02/M02 A3016 RMK A01 T00181020  RH  076%=      5-min Rain = 0
KBO1 141825Z 36017G23KT 02/M02 A3016 RMK A01 T00191016  RH  078%=      5-min Rain = 0
KBO1 141826Z 36017KT 02/M01 A3016 RMK A01 T00201014  RH  078%=      5-min Rain = 0
KBO1 141827Z 35019G26KT 02/M01 A3016 RMK A01 T00211012  RH  079%=      5-min Rain = 0
KBO1 141828Z 35021G26KT 02/M02 A3016 RMK A01 T00211015  RH  077%=      5-min Rain = 0
KBO1 141829Z 36019KT 02/M02 A3016 RMK A01 T00201018  RH  076%=      5-min Rain = 0
KBO1 141830Z 36020KT 02/M02 A3016 RMK A01 T00201017  RH  076%=      5-min Rain = 0
KBO1 141831Z 36019KT 02/M02 A3016 RMK A01 T00201015  RH  078%=      5-min Rain = 0
KBO1 141832Z 00019KT 02/M01 A3016 RMK A01 T00211014  RH  078%=      5-min Rain = 0
KBO1 141833Z 36020G25KT 02/M02 A3016 RMK A01 T00211015  RH  077%=      5-min Rain = 0
KBO1 141834Z 36022KT 02/M02 A3016 RMK A01 T00211017  RH  076%=      5-min Rain = 0
KBO1 141835Z 36019G24KT 02/M02 A3016 RMK A01 T00201017  RH  076%=      5-min Rain = 0
KBO1 141836Z 36017KT 02/M02 A3016 RMK A01 T00201016  RH  077%=      5-min Rain = 0
KBO1 141837Z 00018KT 02/M01 A3016 RMK A01 T00211014  RH  078%=      5-min Rain = 0
KBO1 141838Z 36017KT 02/M01 A3016 RMK A01 T00221013  RH  078%=      5-min Rain = 0
KBO1 141839Z 36019KT 02/M01 A3015 RMK A01 T00231014  RH  077%=      5-min Rain = 0
KBO1 141840Z 36019KT 02/M02 A3015 RMK A01 T00231017  RH  075%=      5-min Rain = 0
KBO1 141841Z 00015KT 02/M01 A3015 RMK A01 T00241014  RH  076%=      5-min Rain = 0
KBO1 141842Z 00015G20KT 03/M01 A3015 RMK A01 T00261010  RH  077%=      5-min Rain = 0
KBO1 141843Z 01018KT 03/M01 A3015 RMK A01 T00271009  RH  077%=      5-min Rain = 0
KBO1 141844Z 00020KT 03/M01 A3015 RMK A01 T00281013  RH  075%=      5-min Rain = 0
KBO1 141845Z 00016KT 03/M01 A3015 RMK A01 T00281014  RH  074%=      5-min Rain = 0
KBO1 141846Z 01018KT 03/M01 A3015 RMK A01 T00291010  RH  076%=      5-min Rain = 0
KBO1 141847Z 01019KT 03/M01 A3015 RMK A01 T00291011  RH  075%=      5-min Rain = 0
KBO1 141848Z 01019G24KT 03/M01 A3015 RMK A01 T00301010  RH  075%=      5-min Rain = 0
KBO1 141849Z 01021KT 03/M01 A3015 RMK A01 T00301011  RH  074%=      5-min Rain = 0
KBO1 141850Z 01015KT 03/M01 A3015 RMK A01 T00311009  RH  075%=      5-min Rain = 0
KBO1 141851Z 00017G22KT 03/M00 A3015 RMK A01 T00331001  RH  078%=      5-min Rain = 0
KBO1 141852Z 00020G25KT 03/M01 A3015 RMK A01 T00341007  RH  075%=      5-min Rain = 0
KBO1 141853Z 36018KT 03/M01 A3015 RMK A01 T00321013  RH  072%=      5-min Rain = 0
KBO1 141854Z 01019KT 03/M01 A3015 RMK A01 T00321012  RH  073%=      5-min Rain = 0
KBO1 141855Z 00018KT 03/M01 A3015 RMK A01 T00321012  RH  073%=      5-min Rain = 0
KBO1 141856Z 35022G28KT 03/M01 A3015 RMK A01 T00321012  RH  072%=      5-min Rain = 0
KBO1 141857Z 36021KT 03/M02 A3015 RMK A01 T00321017  RH  070%=      5-min Rain = 0
KBO1 141858Z 00020KT 03/M02 A3015 RMK A01 T00321019  RH  070%=      5-min Rain = 0
KBO1 141859Z 36021KT 03/M02 A3015 RMK A01 T00311017  RH  070%=      5-min Rain = 0
KBO1 141900Z 00021KT 03/M02 A3015 RMK A01 T00321015  RH  071%=      5-min Rain = 0
KBO1 141901Z 35019KT 03/M02 A3015 RMK A01 T00321016  RH  071%=      5-min Rain = 0
KBO1 141902Z 00019KT 03/M02 A3015 RMK A01 T00321017  RH  070%=      5-min Rain = 0
KBO1 141903Z 01018KT 03/M01 A3015 RMK A01 T00331013  RH  072%=      5-min Rain = 0
KBO1 141904Z 01020G25KT 04/M01 A3015 RMK A01 T00351011  RH  072%=      5-min Rain = 0
KBO1 141905Z 01019KT 04/M02 A3015 RMK A01 T00361015  RH  069%=      5-min Rain = 0
KBO1 141906Z 01017KT 04/M01 A3015 RMK A01 T00361013  RH  071%=      5-min Rain = 0
KBO1 141907Z 36019G26KT 04/M01 A3015 RMK A01 T00361012  RH  071%=      5-min Rain = 0
KBO1 141908Z 01019G24KT 04/M02 A3015 RMK A01 T00371016  RH  068%=      5-min Rain = 0
KBO1 141909Z 01020KT 04/M02 A3015 RMK A01 T00371016  RH  069%=      5-min Rain = 0
KBO1 141910Z 01016KT 04/M02 A3015 RMK A01 T00371018  RH  067%=      5-min Rain = 0
KBO1 141911Z 00017KT 04/M01 A3015 RMK A01 T00371014  RH  069%=      5-min Rain = 0
KBO1 141912Z 00023G29KT 04/M02 A3015 RMK A01 T00381020  RH  066%=      5-min Rain = 0
KBO1 141913Z 36025KT 04/M03 A3015 RMK A01 T00371026  RH  064%=      5-min Rain = 0
KBO1 141914Z 36022KT 04/M03 A3015 RMK A01 T00351028  RH  064%=      5-min Rain = 0
KBO1 141915Z 36018G24KT 04/M03 A3015 RMK A01 T00351025  RH  065%=      5-min Rain = 0
KBO1 141916Z 35022KT 04/M02 A3015 RMK A01 T00351022  RH  066%=      5-min Rain = 0
KBO1 141917Z 00018KT 04/M02 A3015 RMK A01 T00351023  RH  066%=      5-min Rain = 0
KBO1 141918Z 01018KT 04/M02 A3015 RMK A01 T00371022  RH  066%=      5-min Rain = 0
KBO1 141919Z 00019G24KT 04/M03 A3015 RMK A01 T00371026  RH  064%=      5-min Rain = 0
KBO1 141920Z 01021KT 04/M03 A3015 RMK A01 T00371033  RH  060%=      5-min Rain = 0
KBO1 141921Z 00019KT 04/M03 A3015 RMK A01 T00361032  RH  061%=      5-min Rain = 0
KBO1 141922Z 01023G29KT 04/M03 A3015 RMK A01 T00361031  RH  062%=      5-min Rain = 0
KBO1 141923Z 01021G28KT 04/M04 A3015 RMK A01 T00361039  RH  058%=      5-min Rain = 0
KBO1 141924Z 00017KT 04/M04 A3015 RMK A01 T00351035  RH  060%=      5-min Rain = 0
KBO1 141925Z 00016KT 04/M03 A3015 RMK A01 T00371029  RH  062%=      5-min Rain = 0
KBO1 141926Z 01017G23KT 04/M03 A3015 RMK A01 T00381025  RH  063%=      5-min Rain = 0
KBO1 141927Z 01020KT 04/M03 A3015 RMK A01 T00391028  RH  062%=      5-min Rain = 0
KBO1 141928Z 01018KT 04/M04 A3015 RMK A01 T00381036  RH  058%=      5-min Rain = 0
KBO1 141929Z 01019KT 04/M04 A3015 RMK A01 T00381035  RH  059%=      5-min Rain = 0
KBO1 141930Z 01017KT 04/M03 A3015 RMK A01 T00381032  RH  060%=      5-min Rain = 0
KBO1 141931Z 01018KT 04/M03 A3015 RMK A01 T00391025  RH  063%=      5-min Rain = 0
KBO1 141932Z 01019KT 04/M03 A3015 RMK A01 T00411033  RH  059%=      5-min Rain = 0
KBO1 141933Z 02018KT 04/M04 A3015 RMK A01 T00411037  RH  057%=      5-min Rain = 0
KBO1 141934Z 01022KT 04/M04 A3015 RMK A01 T00411040  RH  056%=      5-min Rain = 0
KBO1 141935Z 01019KT 04/M04 A3015 RMK A01 T00391043  RH  055%=      5-min Rain = 0
KBO1 141936Z 01020G25KT 04/M04 A3015 RMK A01 T00391040  RH  056%=      5-min Rain = 0
KBO1 141937Z 01022G28KT 04/M04 A3015 RMK A01 T00391043  RH  055%=      5-min Rain = 0
KBO1 141938Z 01021G27KT 04/M04 A3015 RMK A01 T00401043  RH  055%=      5-min Rain = 0
KBO1 141939Z 01018G24KT 04/M04 A3015 RMK A01 T00401042  RH  055%=      5-min Rain = 0
KBO1 141940Z 01016KT 04/M04 A3015 RMK A01 T00401041  RH  055%=      5-min Rain = 0
KBO1 141941Z 02017G22KT 04/M04 A3015 RMK A01 T00411037  RH  057%=      5-min Rain = 0
KBO1 141942Z 01020KT 04/M04 A3015 RMK A01 T00421037  RH  056%=      5-min Rain = 0
KBO1 141943Z 01019KT 04/M04 A3015 RMK A01 T00431040  RH  055%=      5-min Rain = 0
KBO1 141944Z 01022KT 04/M05 A3015 RMK A01 T00421045  RH  053%=      5-min Rain = 0
KBO1 141945Z 01020KT 04/M05 A3015 RMK A01 T00421047  RH  052%=      5-min Rain = 0
KBO1 141946Z 01021KT 04/M05 A3015 RMK A01 T00411047  RH  053%=      5-min Rain = 0
KBO1 141947Z 00021KT 04/M05 A3015 RMK A01 T00411046  RH  053%=      5-min Rain = 0
KBO1 141948Z 01018KT 04/M05 A3015 RMK A01 T00411046  RH  053%=      5-min Rain = 0
KBO1 141949Z 02019KT 04/M05 A3015 RMK A01 T00421046  RH  053%=      5-min Rain = 0
KBO1 141950Z 02020KT 04/M05 A3015 RMK A01 T00421052  RH  050%=      5-min Rain = 0
KBO1 141951Z 01019KT 04/M06 A3015 RMK A01 T00411056  RH  049%=      5-min Rain = 0
KBO1 141952Z 02019KT 04/M05 A3015 RMK A01 T00411052  RH  051%=      5-min Rain = 0
KBO1 141953Z 01016G24KT 04/M05 A3015 RMK A01 T00421050  RH  051%=      5-min Rain = 0
KBO1 141954Z 02020G25KT 04/M05 A3015 RMK A01 T00431047  RH  052%=      5-min Rain = 0
KBO1 141955Z 02015G20KT 04/M05 A3015 RMK A01 T00431049  RH  051%=      5-min Rain = 0
KBO1 141956Z 01018KT 04/M04 A3015 RMK A01 T00441044  RH  053%=      5-min Rain = 0
KBO1 141957Z 01020G25KT 04/M05 A3015 RMK A01 T00441053  RH  049%=      5-min Rain = 0
KBO1 141958Z 02025G30KT 04/M06 A3015 RMK A01 T00431057  RH  048%=      5-min Rain = 0
KBO1 141959Z 03023KT 04/M06 A3015 RMK A01 T00411061  RH  048%=      5-min Rain = 0
KBO1 142000Z 03023G28KT 04/M06 A3015 RMK A01 T00401061  RH  048%=      5-min Rain = 0
KBO1 142001Z 03020G26KT 04/M06 A3015 RMK A01 T00401061  RH  048%=      5-min Rain = 0
KBO1 142002Z 02022KT 04/M06 A3015 RMK A01 T00401058  RH  049%=      5-min Rain = 0
KBO1 142003Z 02023KT 04/M06 A3015 RMK A01 T00411059  RH  048%=      5-min Rain = 0
KBO1 142004Z 02021G26KT 04/M06 A3015 RMK A01 T00401057  RH  049%=      5-min Rain = 0
KBO1 142005Z 02024KT 04/M06 A3015 RMK A01 T00411057  RH  049%=      5-min Rain = 0
KBO1 142006Z 02021KT 04/M06 A3015 RMK A01 T00411057  RH  049%=      5-min Rain = 0
KBO1 142007Z 03022KT 04/M06 A3015 RMK A01 T00411057  RH  049%=      5-min Rain = 0
KBO1 142008Z 02020KT 04/M05 A3015 RMK A01 T00411054  RH  050%=      5-min Rain = 0
KBO1 142009Z 03019KT 04/M05 A3015 RMK A01 T00421053  RH  050%=      5-min Rain = 0
KBO1 142010Z 03018G24KT 04/M05 A3015 RMK A01 T00421054  RH  050%=      5-min Rain = 0
KBO1 142011Z 03020KT 04/M05 A3015 RMK A01 T00431053  RH  050%=      5-min Rain = 0
KBO1 142012Z 02020KT 04/M05 A3015 RMK A01 T00431053  RH  050%=      5-min Rain = 0
KBO1 142013Z 02018KT 04/M05 A3015 RMK A01 T00431053  RH  050%=      5-min Rain = 0
KBO1 142014Z 01019KT 05/M05 A3015 RMK A01 T00451050  RH  050%=      5-min Rain = 0
KBO1 142015Z 01017KT 05/M05 A3015 RMK A01 T00461049  RH  050%=      5-min Rain = 0
KBO1 142016Z 01019G24KT 05/M05 A3015 RMK A01 T00471048  RH  050%=      5-min Rain = 0
KBO1 142017Z 02020KT 05/M05 A3015 RMK A01 T00471048  RH  050%=      5-min Rain = 0
KBO1 142018Z 01017G23KT 05/M05 A3015 RMK A01 T00461049  RH  050%=      5-min Rain = 0
KBO1 142019Z 02018KT 05/M05 A3015 RMK A01 T00451050  RH  050%=      5-min Rain = 0
KBO1 142020Z 03019KT 05/M05 A3015 RMK A01 T00451052  RH  050%=      5-min Rain = 0
KBO1 142021Z 03017KT 04/M05 A3015 RMK A01 T00441052  RH  050%=      5-min Rain = 0
KBO1 142022Z 03014G20KT 04/M05 A3015 RMK A01 T00441049  RH  051%=      5-min Rain = 0
KBO1 142023Z 02020G26KT 05/M05 A3015 RMK A01 T00451048  RH  051%=      5-min Rain = 0
KBO1 142024Z 03020KT 05/M05 A3015 RMK A01 T00451047  RH  051%=      5-min Rain = 0
KBO1 142025Z 02018G25KT 05/M04 A3015 RMK A01 T00451044  RH  052%=      5-min Rain = 0
KBO1 142026Z 03021KT 05/M04 A3015 RMK A01 T00451044  RH  052%=      5-min Rain = 0
KBO1 142027Z 03020KT 04/M05 A3015 RMK A01 T00431046  RH  052%=      5-min Rain = 0
KBO1 142028Z 03020KT 04/M04 A3015 RMK A01 T00411042  RH  055%=      5-min Rain = 0
KBO1 142029Z 03017KT 04/M04 A3015 RMK A01 T00411037  RH  057%=      5-min Rain = 0
KBO1 142030Z 03018KT 04/M04 A3015 RMK A01 T00411036  RH  057%=      5-min Rain = 0
KBO1 142031Z 02020G25KT 04/M04 A3015 RMK A01 T00421036  RH  057%=      5-min Rain = 0
KBO1 142032Z 03020G25KT 04/M04 A3015 RMK A01 T00411044  RH  054%=      5-min Rain = 0
KBO1 142033Z 03019KT 04/M05 A3015 RMK A01 T00401047  RH  053%=      5-min Rain = 0
KBO1 142034Z 03019KT 04/M04 A3015 RMK A01 T00401043  RH  055%=      5-min Rain = 0
KBO1 142035Z 03020KT 04/M04 A3015 RMK A01 T00411041  RH  055%=      5-min Rain = 0
KBO1 142036Z 03021G26KT 04/M04 A3015 RMK A01 T00401042  RH  055%=      5-min Rain = 0
KBO1 142037Z 02018KT 04/M04 A3015 RMK A01 T00401041  RH  056%=      5-min Rain = 0
KBO1 142038Z 01018KT 04/M04 A3015 RMK A01 T00411037  RH  057%=      5-min Rain = 0
KBO1 142039Z 02016KT 04/M04 A3015 RMK A01 T00441040  RH  055%=      5-min Rain = 0
KBO1 142040Z 02015KT 04/M04 A3015 RMK A01 T00441041  RH  054%=      5-min Rain = 0
KBO1 142041Z 02014KT 04/M04 A3015 RMK A01 T00441041  RH  054%=      5-min Rain = 0
KBO1 142042Z 02017G22KT 04/M04 A3015 RMK A01 T00441041  RH  054%=      5-min Rain = 0
KBO1 142043Z 02018KT 05/M04 A3015 RMK A01 T00451042  RH  053%=      5-min Rain = 0
KBO1 142044Z 01017KT 05/M05 A3014 RMK A01 T00461045  RH  052%=      5-min Rain = 0
KBO1 142045Z 02016KT 05/M05 A3014 RMK A01 T00461046  RH  051%=      5-min Rain = 0
KBO1 142046Z 02015KT 05/M05 A3014 RMK A01 T00461046  RH  051%=      5-min Rain = 0
KBO1 142047Z 02016KT 05/M05 A3014 RMK A01 T00471046  RH  051%=      5-min Rain = 0
KBO1 142048Z 36016KT 05/M04 A3014 RMK A01 T00491042  RH  052%=      5-min Rain = 0
KBO1 142049Z 36016KT 05/M05 A3014 RMK A01 T00501047  RH  050%=      5-min Rain = 0
KBO1 142050Z 01013G19KT 05/M05 A3014 RMK A01 T00491046  RH  050%=      5-min Rain = 0
KBO1 142051Z 01017KT 05/M04 A3014 RMK A01 T00521041  RH  051%=      5-min Rain = 0
KBO1 142052Z 01017KT 05/M05 A3014 RMK A01 T00531046  RH  049%=      5-min Rain = 0
KBO1 142053Z 01017KT 05/M05 A3014 RMK A01 T00531045  RH  049%=      5-min Rain = 0
KBO1 142054Z 01020G26KT 05/M05 A3014 RMK A01 T00531046  RH  049%=      5-min Rain = 0
KBO1 142055Z 01023G28KT 05/M05 A3014 RMK A01 T00521051  RH  047%=      5-min Rain = 0
KBO1 142056Z 01022KT 05/M05 A3014 RMK A01 T00501052  RH  047%=      5-min Rain = 0
KBO1 142057Z 01019KT 05/M05 A3014 RMK A01 T00501052  RH  048%=      5-min Rain = 0
KBO1 142058Z 35018KT 05/M05 A3014 RMK A01 T00511051  RH  048%=      5-min Rain = 0
KBO1 142059Z 36020G28KT 05/M05 A3014 RMK A01 T00521050  RH  048%=      5-min Rain = 0
KBO1 142100Z 00023KT 05/M05 A3014 RMK A01 T00531051  RH  047%=      5-min Rain = 0
KBO1 142101Z 01021KT 05/M05 A3014 RMK A01 T00521054  RH  047%=      5-min Rain = 0
KBO1 142102Z 00018KT 05/M05 A3014 RMK A01 T00511054  RH  047%=      5-min Rain = 0
KBO1 142103Z 00019KT 05/M06 A3014 RMK A01 T00511055  RH  046%=      5-min Rain = 0
KBO1 142104Z 01019KT 05/M05 A3014 RMK A01 T00511053  RH  047%=      5-min Rain = 0
KBO1 142105Z 02017KT 05/M05 A3014 RMK A01 T00531050  RH  047%=      5-min Rain = 0
KBO1 142106Z 02019G24KT 05/M05 A3014 RMK A01 T00531050  RH  047%=      5-min Rain = 0
KBO1 142107Z 01020KT 05/M05 A3014 RMK A01 T00541052  RH  047%=      5-min Rain = 0
KBO1 142108Z 00019G24KT 05/M06 A3014 RMK A01 T00531055  RH  046%=      5-min Rain = 0
KBO1 142109Z 01020G26KT 05/M06 A3014 RMK A01 T00521055  RH  046%=      5-min Rain = 0
KBO1 142110Z 00021KT 05/M06 A3014 RMK A01 T00521055  RH  046%=      5-min Rain = 0
KBO1 142111Z 01019KT 05/M06 A3014 RMK A01 T00511057  RH  046%=      5-min Rain = 0
KBO1 142112Z 00015KT 05/M06 A3014 RMK A01 T00501057  RH  046%=      5-min Rain = 0
KBO1 142113Z 01021KT 05/M05 A3014 RMK A01 T00501054  RH  047%=      5-min Rain = 0
KBO1 142114Z 01021KT 05/M06 A3014 RMK A01 T00511057  RH  045%=      5-min Rain = 0
KBO1 142115Z 00020KT 05/M06 A3014 RMK A01 T00511059  RH  045%=      5-min Rain = 0
KBO1 142116Z 36019G25KT 05/M06 A3014 RMK A01 T00501060  RH  045%=      5-min Rain = 0
KBO1 142117Z 00017KT 05/M06 A3014 RMK A01 T00501060  RH  045%=      5-min Rain = 0
KBO1 142118Z 00018KT 05/M06 A3014 RMK A01 T00511060  RH  045%=      5-min Rain = 0
KBO1 142119Z 01017KT 05/M06 A3014 RMK A01 T00511059  RH  045%=      5-min Rain = 0
KBO1 142120Z 01018G23KT 05/M06 A3014 RMK A01 T00511061  RH  044%=      5-min Rain = 0
KBO1 142121Z 00014KT 05/M06 A3014 RMK A01 T00541058  RH  045%=      5-min Rain = 0
KBO1 142122Z 01016KT 06/M06 A3014 RMK A01 T00571057  RH  044%=      5-min Rain = 0
KBO1 142123Z 02015KT 06/M06 A3014 RMK A01 T00561063  RH  042%=      5-min Rain = 0
KBO1 142124Z 01015G20KT 06/M06 A3014 RMK A01 T00551060  RH  044%=      5-min Rain = 0
KBO1 142125Z 01016KT 06/M06 A3014 RMK A01 T00551062  RH  043%=      5-min Rain = 0
KBO1 142126Z 35018KT 06/M06 A3014 RMK A01 T00571061  RH  043%=      5-min Rain = 0
KBO1 142127Z 35018KT 06/M06 A3014 RMK A01 T00591062  RH  041%=      5-min Rain = 0
KBO1 142128Z 00019KT 06/M06 A3014 RMK A01 T00601064  RH  041%=      5-min Rain = 0
KBO1 142129Z 01018KT 06/M07 A3014 RMK A01 T00601066  RH  040%=      5-min Rain = 0
KBO1 142130Z 02017KT 06/M06 A3014 RMK A01 T00611061  RH  041%=      5-min Rain = 0
KBO1 142131Z 02018KT 06/M06 A3014 RMK A01 T00641060  RH  041%=      5-min Rain = 0
KBO1 142132Z 01016G21KT 06/M06 A3014 RMK A01 T00641060  RH  041%=      5-min Rain = 0
KBO1 142133Z 01014KT 07/M06 A3014 RMK A01 T00661055  RH  042%=      5-min Rain = 0
KBO1 142134Z 00015KT 07/M06 A3014 RMK A01 T00691059  RH  040%=      5-min Rain = 0
KBO1 142135Z 01016G21KT 07/M06 A3014 RMK A01 T00681058  RH  040%=      5-min Rain = 0
KBO1 142136Z 00015KT 07/M06 A3014 RMK A01 T00681058  RH  040%=      5-min Rain = 0
KBO1 142137Z 36015KT 07/M06 A3014 RMK A01 T00671061  RH  040%=      5-min Rain = 0
KBO1 142138Z 01016G22KT 07/M06 A3014 RMK A01 T00661061  RH  040%=      5-min Rain = 0
KBO1 142139Z 02018KT 07/M06 A3014 RMK A01 T00671059  RH  040%=      5-min Rain = 0
KBO1 142140Z 02018KT 07/M07 A3014 RMK A01 T00661065  RH  039%=      5-min Rain = 0
KBO1 142141Z 02017KT 06/M07 A3014 RMK A01 T00641065  RH  039%=      5-min Rain = 0
KBO1 142142Z 01018KT 06/M07 A3014 RMK A01 T00631065  RH  039%=      5-min Rain = 0
KBO1 142143Z 02016KT 06/M06 A3014 RMK A01 T00631064  RH  040%=      5-min Rain = 0
KBO1 142144Z 01013KT 06/M06 A3014 RMK A01 T00641062  RH  040%=      5-min Rain = 0
KBO1 142145Z 01014KT 07/M06 A3014 RMK A01 T00651060  RH  040%=      5-min Rain = 0
KBO1 142146Z 01014KT 07/M06 A3014 RMK A01 T00671058  RH  040%=      5-min Rain = 0
KBO1 142147Z 02015KT 07/M06 A3014 RMK A01 T00671062  RH  039%=      5-min Rain = 0
KBO1 142148Z 00015KT 07/M06 A3014 RMK A01 T00661063  RH  039%=      5-min Rain = 0
KBO1 142149Z 35017KT 07/M06 A3014 RMK A01 T00671062  RH  039%=      5-min Rain = 0
KBO1 142150Z 01017KT 07/M06 A3014 RMK A01 T00681061  RH  039%=      5-min Rain = 0
KBO1 142151Z 01018KT 07/M06 A3014 RMK A01 T00691062  RH  039%=      5-min Rain = 0
KBO1 142152Z 01015KT 07/M07 A3014 RMK A01 T00681065  RH  038%=      5-min Rain = 0
KBO1 142153Z 01015KT 07/M07 A3014 RMK A01 T00671065  RH  038%=      5-min Rain = 0
KBO1 142154Z 02014KT 07/M06 A3014 RMK A01 T00671063  RH  039%=      5-min Rain = 0
KBO1 142155Z 00016KT 07/M06 A3014 RMK A01 T00691061  RH  039%=      5-min Rain = 0
KBO1 142156Z 01015KT 07/M06 A3014 RMK A01 T00691064  RH  038%=      5-min Rain = 0
KBO1 142157Z 02014KT 07/M06 A3014 RMK A01 T00701060  RH  039%=      5-min Rain = 0
KBO1 142158Z 00015KT 07/M06 A3014 RMK A01 T00741057  RH  039%=      5-min Rain = 0
KBO1 142159Z 00014G21KT 08/M06 A3013 RMK A01 T00751060  RH  038%=      5-min Rain = 0
KBO1 142200Z 01018G23KT 08/M07 A3013 RMK A01 T00751065  RH  036%=      5-min Rain = 0
KBO1 142201Z 01015KT 07/M07 A3013 RMK A01 T00721066  RH  037%=      5-min Rain = 0
KBO1 142202Z 01017KT 07/M07 A3013 RMK A01 T00721065  RH  037%=      5-min Rain = 0
KBO1 142203Z 36017KT 07/M06 A3013 RMK A01 T00731064  RH  037%=      5-min Rain = 0
KBO1 142204Z 01019KT 07/M07 A3013 RMK A01 T00721066  RH  037%=      5-min Rain = 0
KBO1 142205Z 00014KT 07/M06 A3013 RMK A01 T00721064  RH  037%=      5-min Rain = 0
KBO1 142206Z 01018G23KT 07/M06 A3013 RMK A01 T00731062  RH  038%=      5-min Rain = 0
KBO1 142207Z 01015G21KT 07/M06 A3013 RMK A01 T00741062  RH  037%=      5-min Rain = 0
KBO1 142208Z 01014G22KT 07/M06 A3013 RMK A01 T00741059  RH  038%=      5-min Rain = 0
KBO1 142209Z 01017KT 08/M06 A3013 RMK A01 T00771061  RH  037%=      5-min Rain = 0
KBO1 142210Z 01015KT 08/M07 A3013 RMK A01 T00761065  RH  036%=      5-min Rain = 0
KBO1 142211Z 02016KT 08/M06 A3013 RMK A01 T00761061  RH  037%=      5-min Rain = 0
KBO1 142212Z 03017KT 08/M06 A3013 RMK A01 T00781058  RH  037%=      5-min Rain = 0
KBO1 142213Z 03017KT 08/M06 A3013 RMK A01 T00771059  RH  037%=      5-min Rain = 0
KBO1 142214Z 02022KT 08/M06 A3013 RMK A01 T00751060  RH  038%=      5-min Rain = 0
KBO1 142215Z 02018KT 07/M06 A3014 RMK A01 T00741061  RH  038%=      5-min Rain = 0
KBO1 142216Z 01014KT 07/M06 A3013 RMK A01 T00731062  RH  038%=      5-min Rain = 0
KBO1 142217Z 02015KT 07/M06 A3013 RMK A01 T00741061  RH  038%=      5-min Rain = 0
KBO1 142218Z 02015KT 08/M06 A3013 RMK A01 T00751061  RH  038%=      5-min Rain = 0
KBO1 142219Z 03021KT 08/M06 A3013 RMK A01 T00761060  RH  038%=      5-min Rain = 0
KBO1 142220Z 01023KT 08/M06 A3013 RMK A01 T00761060  RH  037%=      5-min Rain = 0
KBO1 142221Z 01020KT 08/M06 A3013 RMK A01 T00761060  RH  037%=      5-min Rain = 0
KBO1 142222Z 01021KT 08/M06 A3013 RMK A01 T00771061  RH  037%=      5-min Rain = 0
KBO1 142223Z 01020KT 08/M07 A3013 RMK A01 T00761065  RH  036%=      5-min Rain = 0
KBO1 142224Z 00017KT 07/M07 A3013 RMK A01 T00741065  RH  037%=      5-min Rain = 0
KBO1 142225Z 00014G20KT 07/M07 A3013 RMK A01 T00711065  RH  037%=      5-min Rain = 0
KBO1 142226Z 01017KT 07/M06 A3013 RMK A01 T00701064  RH  038%=      5-min Rain = 0
KBO1 142227Z 01017G22KT 07/M07 A3013 RMK A01 T00681065  RH  038%=      5-min Rain = 0
KBO1 142228Z 36017KT 07/M07 A3013 RMK A01 T00661065  RH  039%=      5-min Rain = 0
KBO1 142229Z 01019G24KT 07/M07 A3013 RMK A01 T00651065  RH  039%=      5-min Rain = 0
KBO1 142230Z 02019KT 07/M06 A3013 RMK A01 T00651062  RH  040%=      5-min Rain = 0
KBO1 142231Z 01019KT 07/M06 A3014 RMK A01 T00651062  RH  040%=      5-min Rain = 0
KBO1 142232Z 01018KT 06/M06 A3013 RMK A01 T00631064  RH  040%=      5-min Rain = 0
KBO1 142233Z 02016KT 06/M06 A3013 RMK A01 T00631062  RH  040%=      5-min Rain = 0
KBO1 142234Z 01014G19KT 06/M06 A3013 RMK A01 T00621062  RH  040%=      5-min Rain = 0
KBO1 142235Z 01017KT 06/M06 A3013 RMK A01 T00631064  RH  040%=      5-min Rain = 0
KBO1 142236Z 01016KT 07/M06 A3013 RMK A01 T00651063  RH  039%=      5-min Rain = 0
KBO1 142237Z 02017KT 07/M06 A3013 RMK A01 T00671062  RH  039%=      5-min Rain = 0
KBO1 142238Z 01018KT 07/M06 A3013 RMK A01 T00681062  RH  039%=      5-min Rain = 0
KBO1 142239Z 01017KT 07/M07 A3013 RMK A01 T00681065  RH  038%=      5-min Rain = 0
KBO1 142240Z 01018G23KT 07/M06 A3013 RMK A01 T00681064  RH  038%=      5-min Rain = 0
KBO1 142241Z 00017G22KT 07/M06 A3013 RMK A01 T00711064  RH  038%=      5-min Rain = 0
KBO1 142242Z 01012KT 07/M06 A3013 RMK A01 T00721063  RH  038%=      5-min Rain = 0
KBO1 142243Z 03016G22KT 08/M06 A3013 RMK A01 T00761057  RH  038%=      5-min Rain = 0
KBO1 142244Z 03018KT 08/M06 A3014 RMK A01 T00751061  RH  037%=      5-min Rain = 0
KBO1 142245Z 03018KT 07/M06 A3013 RMK A01 T00721064  RH  037%=      5-min Rain = 0
KBO1 142246Z 02018KT 07/M07 A3013 RMK A01 T00691066  RH  038%=      5-min Rain = 0
KBO1 142247Z 02018G24KT 07/M06 A3013 RMK A01 T00691062  RH  039%=      5-min Rain = 0
KBO1 142248Z 03020KT 07/M06 A3014 RMK A01 T00701061  RH  039%=      5-min Rain = 0
KBO1 142249Z 02020KT 07/M06 A3014 RMK A01 T00701063  RH  038%=      5-min Rain = 0
KBO1 142250Z 03021KT 07/M07 A3014 RMK A01 T00701065  RH  038%=      5-min Rain = 0
KBO1 142251Z 02020KT 07/M07 A3013 RMK A01 T00691066  RH  038%=      5-min Rain = 0
KBO1 142252Z 02019KT 07/M07 A3013 RMK A01 T00691066  RH  038%=      5-min Rain = 0
KBO1 142253Z 03017KT 07/M06 A3013 RMK A01 T00691064  RH  038%=      5-min Rain = 0
KBO1 142254Z 03018KT 07/M06 A3013 RMK A01 T00701063  RH  038%=      5-min Rain = 0
KBO1 142255Z 03018KT 07/M06 A3013 RMK A01 T00711063  RH  038%=      5-min Rain = 0
KBO1 142256Z 02015KT 07/M06 A3013 RMK A01 T00711062  RH  038%=      5-min Rain = 0
KBO1 142257Z 02016KT 07/M06 A3013 RMK A01 T00711061  RH  039%=      5-min Rain = 0
KBO1 142258Z 03015G20KT 07/M06 A3013 RMK A01 T00721059  RH  039%=      5-min Rain = 0
KBO1 142259Z 03017KT 07/M06 A3014 RMK A01 T00731060  RH  038%=      5-min Rain = 0
KBO1 142300Z 02015KT 07/M06 A3014 RMK A01 T00731060  RH  038%=      5-min Rain = 0
KBO1 142301Z 02014KT 07/M06 A3014 RMK A01 T00721060  RH  039%=      5-min Rain = 0
KBO1 142302Z 03016KT 07/M06 A3014 RMK A01 T00701060  RH  039%=      5-min Rain = 0
KBO1 142303Z 02019G24KT 07/M06 A3014 RMK A01 T00701060  RH  039%=      5-min Rain = 0
KBO1 142304Z 01023KT 07/M06 A3014 RMK A01 T00701061  RH  039%=      5-min Rain = 0
KBO1 142305Z 02021KT 07/M06 A3014 RMK A01 T00701063  RH  038%=      5-min Rain = 0
KBO1 142306Z 02020KT 07/M06 A3014 RMK A01 T00701064  RH  038%=      5-min Rain = 0
KBO1 142307Z 02018G23KT 07/M06 A3014 RMK A01 T00701062  RH  038%=      5-min Rain = 0
KBO1 142308Z 02016G21KT 07/M06 A3014 RMK A01 T00711061  RH  039%=      5-min Rain = 0
KBO1 142309Z 02018KT 07/M06 A3014 RMK A01 T00711060  RH  039%=      5-min Rain = 0
KBO1 142310Z 02021KT 07/M06 A3014 RMK A01 T00711061  RH  038%=      5-min Rain = 0
KBO1 142311Z 02019KT 07/M06 A3014 RMK A01 T00701064  RH  038%=      5-min Rain = 0
KBO1 142312Z 02019G25KT 07/M06 A3014 RMK A01 T00701061  RH  039%=      5-min Rain = 0
KBO1 142313Z 02020KT 07/M06 A3014 RMK A01 T00701063  RH  038%=      5-min Rain = 0
KBO1 142314Z 02016KT 07/M06 A3014 RMK A01 T00701064  RH  038%=      5-min Rain = 0
KBO1 142315Z 02014KT 07/M06 A3014 RMK A01 T00701063  RH  038%=      5-min Rain = 0
KBO1 142316Z 02018KT 07/M06 A3014 RMK A01 T00701063  RH  038%=      5-min Rain = 0
KBO1 142317Z 01020KT 07/M06 A3014 RMK A01 T00701063  RH  038%=      5-min Rain = 0
KBO1 142318Z 01018KT 07/M06 A3014 RMK A01 T00711064  RH  038%=      5-min Rain = 0
KBO1 142319Z 01015G20KT 07/M06 A3014 RMK A01 T00711061  RH  038%=      5-min Rain = 0
KBO1 142320Z 01017KT 07/M06 A3014 RMK A01 T00721060  RH  039%=      5-min Rain = 0
KBO1 142321Z 36019KT 07/M06 A3014 RMK A01 T00711063  RH  038%=      5-min Rain = 0
KBO1 142322Z 00017G22KT 07/M07 A3014 RMK A01 T00681066  RH  038%=      5-min Rain = 0
KBO1 142323Z 00016KT 07/M07 A3014 RMK A01 T00661068  RH  038%=      5-min Rain = 0
KBO1 142324Z 00017KT 06/M07 A3015 RMK A01 T00641069  RH  038%=      5-min Rain = 0
KBO1 142325Z 00017KT 06/M07 A3014 RMK A01 T00631068  RH  038%=      5-min Rain = 0
KBO1 142326Z 00015KT 06/M07 A3015 RMK A01 T00631068  RH  039%=      5-min Rain = 0
KBO1 142327Z 00015KT 06/M07 A3015 RMK A01 T00621065  RH  040%=      5-min Rain = 0
KBO1 142328Z 01019KT 06/M07 A3015 RMK A01 T00621065  RH  040%=      5-min Rain = 0
KBO1 142329Z 01016KT 06/M07 A3015 RMK A01 T00631065  RH  039%=      5-min Rain = 0
KBO1 142330Z 01019KT 06/M06 A3015 RMK A01 T00641064  RH  039%=      5-min Rain = 0
KBO1 142331Z 01015G21KT 06/M07 A3015 RMK A01 T00641065  RH  039%=      5-min Rain = 0
KBO1 142332Z 01017KT 06/M06 A3015 RMK A01 T00631064  RH  040%=      5-min Rain = 0
KBO1 142333Z 02017KT 06/M06 A3015 RMK A01 T00621063  RH  040%=      5-min Rain = 0
KBO1 142334Z 02016KT 06/M07 A3015 RMK A01 T00611065  RH  040%=      5-min Rain = 0
KBO1 142335Z 02017KT 06/M07 A3015 RMK A01 T00611065  RH  040%=      5-min Rain = 0
KBO1 142336Z 01013KT 06/M06 A3015 RMK A01 T00601064  RH  040%=      5-min Rain = 0
KBO1 142337Z 02017KT 06/M06 A3015 RMK A01 T00591063  RH  041%=      5-min Rain = 0
KBO1 142338Z 02015G20KT 06/M06 A3015 RMK A01 T00591064  RH  041%=      5-min Rain = 0
KBO1 142339Z 02018KT 06/M06 A3015 RMK A01 T00591064  RH  041%=      5-min Rain = 0
KBO1 142340Z 02017KT 06/M06 A3015 RMK A01 T00581064  RH  041%=      5-min Rain = 0
KBO1 142341Z 02015KT 06/M06 A3015 RMK A01 T00581063  RH  042%=      5-min Rain = 0
KBO1 142342Z 02015KT 06/M06 A3015 RMK A01 T00571059  RH  043%=      5-min Rain = 0
KBO1 142343Z 02016KT 06/M06 A3016 RMK A01 T00571060  RH  043%=      5-min Rain = 0
KBO1 142344Z 02017KT 06/M06 A3016 RMK A01 T00561061  RH  042%=      5-min Rain = 0
KBO1 142345Z 02018KT 06/M06 A3016 RMK A01 T00561062  RH  042%=      5-min Rain = 0
KBO1 142346Z 02015G20KT 06/M06 A3016 RMK A01 T00561062  RH  042%=      5-min Rain = 0
KBO1 142347Z 02014G19KT 06/M06 A3016 RMK A01 T00561061  RH  043%=      5-min Rain = 0
KBO1 142348Z 02014KT 06/M06 A3016 RMK A01 T00561061  RH  043%=      5-min Rain = 0
KBO1 142349Z 02014KT 06/M06 A3016 RMK A01 T00561061  RH  043%=      5-min Rain = 0
KBO1 142350Z 02016KT 06/M06 A3016 RMK A01 T00561061  RH  043%=      5-min Rain = 0
KBO1 142351Z 02016KT 06/M06 A3016 RMK A01 T00561063  RH  042%=      5-min Rain = 0
KBO1 142352Z 02015KT 06/M06 A3016 RMK A01 T00561064  RH  042%=      5-min Rain = 0
KBO1 142353Z 02013KT 06/M06 A3016 RMK A01 T00561063  RH  042%=      5-min Rain = 0
KBO1 142354Z 03014KT 06/M06 A3016 RMK A01 T00561059  RH  043%=      5-min Rain = 0
KBO1 142355Z 02015KT 06/M06 A3016 RMK A01 T00561061  RH  043%=      5-min Rain = 0
KBO1 142356Z 02014KT 06/M06 A3016 RMK A01 T00561060  RH  043%=      5-min Rain = 0
KBO1 142357Z 02013KT 06/M06 A3016 RMK A01 T00561060  RH  043%=      5-min Rain = 0
KBO1 142358Z 02012KT 06/M06 A3016 RMK A01 T00561058  RH  044%=      5-min Rain = 0
KBO1 142359Z 02011KT 06/M06 A3016 RMK A01 T00551057  RH  044%=      5-min Rain = 0
KBO1 150000Z 02012KT 06/M06 A3016 RMK A01 T00551056  RH  044%=      5-min Rain = 0
KBO1 150001Z 01011KT 06/M06 A3017 RMK A01 T00551056  RH  045%=      5-min Rain = 0
KBO1 150002Z 02011KT 06/M06 A3017 RMK A01 T00551056  RH  045%=      5-min Rain = 0
KBO1 150003Z 01010KT 06/M06 A3017 RMK A01 T00551056  RH  045%=      5-min Rain = 0
KBO1 150004Z 02014KT 05/M06 A3017 RMK A01 T00541057  RH  044%=      5-min Rain = 0
KBO1 150005Z 01014KT 06/M06 A3017 RMK A01 T00551059  RH  044%=      5-min Rain = 0
KBO1 150006Z 01016KT 05/M06 A3017 RMK A01 T00541061  RH  043%=      5-min Rain = 0
KBO1 150007Z 01016KT 05/M06 A3017 RMK A01 T00541064  RH  042%=      5-min Rain = 0
KBO1 150008Z 02014KT 05/M07 A3017 RMK A01 T00541065  RH  042%=      5-min Rain = 0
KBO1 150009Z 01012KT 05/M06 A3017 RMK A01 T00541061  RH  043%=      5-min Rain = 0
KBO1 150010Z 01012KT 05/M06 A3017 RMK A01 T00531059  RH  044%=      5-min Rain = 0
KBO1 150011Z 01015KT 05/M06 A3017 RMK A01 T00531060  RH  044%=      5-min Rain = 0
KBO1 150012Z 01015KT 05/M06 A3017 RMK A01 T00531062  RH  043%=      5-min Rain = 0
KBO1 150013Z 02014KT 05/M06 A3017 RMK A01 T00531062  RH  043%=      5-min Rain = 0
KBO1 150014Z 01012KT 05/M06 A3017 RMK A01 T00521063  RH  043%=      5-min Rain = 0
KBO1 150015Z 01011KT 05/M06 A3017 RMK A01 T00521060  RH  044%=      5-min Rain = 0
KBO1 150016Z 01014KT 05/M06 A3017 RMK A01 T00521060  RH  044%=      5-min Rain = 0
KBO1 150017Z 01015KT 05/M06 A3017 RMK A01 T00511061  RH  044%=      5-min Rain = 0
KBO1 150018Z 01014KT 05/M06 A3017 RMK A01 T00511061  RH  044%=      5-min Rain = 0
KBO1 150019Z 01013KT 05/M06 A3017 RMK A01 T00511061  RH  044%=      5-min Rain = 0
KBO1 150020Z 01011KT 05/M06 A3017 RMK A01 T00501060  RH  045%=      5-min Rain = 0
KBO1 150021Z 01013KT 05/M06 A3017 RMK A01 T00501059  RH  045%=      5-min Rain = 0
KBO1 150022Z 01013KT 05/M06 A3017 RMK A01 T00501060  RH  045%=      5-min Rain = 0
KBO1 150023Z 01013KT 05/M06 A3017 RMK A01 T00491061  RH  045%=      5-min Rain = 0
KBO1 150024Z 01014KT 05/M06 A3017 RMK A01 T00491060  RH  045%=      5-min Rain = 0
KBO1 150025Z 01013KT 05/M06 A3017 RMK A01 T00501061  RH  045%=      5-min Rain = 0
KBO1 150026Z 01013KT 05/M06 A3017 RMK A01 T00491061  RH  045%=      5-min Rain = 0
KBO1 150027Z 01014KT 05/M06 A3017 RMK A01 T00491062  RH  045%=      5-min Rain = 0
KBO1 150028Z 01014KT 05/M06 A3017 RMK A01 T00491063  RH  044%=      5-min Rain = 0
KBO1 150029Z 01013KT 05/M06 A3018 RMK A01 T00491062  RH  044%=      5-min Rain = 0
KBO1 150030Z 01013KT 05/M06 A3018 RMK A01 T00481062  RH  045%=      5-min Rain = 0
KBO1 150031Z 01012KT 05/M06 A3018 RMK A01 T00471063  RH  045%=      5-min Rain = 0
KBO1 150032Z 01011KT 05/M06 A3018 RMK A01 T00471062  RH  045%=      5-min Rain = 0
KBO1 150033Z 01011KT 05/M06 A3018 RMK A01 T00461062  RH  045%=      5-min Rain = 0
KBO1 150034Z 01012KT 05/M06 A3018 RMK A01 T00461062  RH  045%=      5-min Rain = 0
KBO1 150035Z 01011KT 05/M06 A3018 RMK A01 T00461061  RH  046%=      5-min Rain = 0
KBO1 150036Z 01011KT 05/M06 A3018 RMK A01 T00451060  RH  046%=      5-min Rain = 0
KBO1 150037Z 00013KT 04/M06 A3018 RMK A01 T00441061  RH  046%=      5-min Rain = 0
KBO1 150038Z 01011KT 04/M06 A3018 RMK A01 T00441062  RH  046%=      5-min Rain = 0
KBO1 150039Z 01010KT 04/M06 A3018 RMK A01 T00441061  RH  046%=      5-min Rain = 0
KBO1 150040Z 01011KT 04/M06 A3018 RMK A01 T00431062  RH  046%=      5-min Rain = 0
KBO1 150041Z 00011KT 04/M06 A3018 RMK A01 T00431061  RH  047%=      5-min Rain = 0
KBO1 150042Z 00010KT 04/M06 A3018 RMK A01 T00431061  RH  047%=      5-min Rain = 0
KBO1 150043Z 00011KT 04/M06 A3018 RMK A01 T00421061  RH  047%=      5-min Rain = 0
KBO1 150044Z 00011KT 04/M06 A3018 RMK A01 T00421061  RH  047%=      5-min Rain = 0
KBO1 150045Z 00010KT 04/M06 A3018 RMK A01 T00411061  RH  047%=      5-min Rain = 0
KBO1 150046Z 00012KT 04/M06 A3018 RMK A01 T00411061  RH  047%=      5-min Rain = 0
KBO1 150047Z 00011KT 04/M06 A3018 RMK A01 T00411062  RH  047%=      5-min Rain = 0
KBO1 150048Z 00012KT 04/M06 A3018 RMK A01 T00411062  RH  047%=      5-min Rain = 0
KBO1 150049Z 00012KT 04/M06 A3018 RMK A01 T00411062  RH  047%=      5-min Rain = 0
KBO1 150050Z 36011KT 04/M06 A3018 RMK A01 T00411062  RH  047%=      5-min Rain = 0
KBO1 150051Z 00013KT 04/M06 A3018 RMK A01 T00401061  RH  047%=      5-min Rain = 0
KBO1 150052Z 00013KT 04/M06 A3018 RMK A01 T00401062  RH  047%=      5-min Rain = 0
KBO1 150053Z 00012KT 04/M06 A3018 RMK A01 T00401062  RH  047%=      5-min Rain = 0
KBO1 150054Z 36012KT 04/M06 A3019 RMK A01 T00401062  RH  047%=      5-min Rain = 0
KBO1 150055Z 00012KT 04/M06 A3019 RMK A01 T00401062  RH  048%=      5-min Rain = 0
KBO1 150056Z 36012KT 04/M06 A3019 RMK A01 T00401062  RH  048%=      5-min Rain = 0
KBO1 150057Z 36012KT 04/M06 A3019 RMK A01 T00391062  RH  048%=      5-min Rain = 0
KBO1 150058Z 36010KT 04/M06 A3019 RMK A01 T00391062  RH  048%=      5-min Rain = 0
KBO1 150059Z 36010KT 04/M06 A3019 RMK A01 T00381062  RH  048%=      5-min Rain = 0
KBO1 150100Z 35012KT 04/M06 A3019 RMK A01 T00371062  RH  048%=      5-min Rain = 0
KBO1 150101Z 35012KT 04/M06 A3019 RMK A01 T00371062  RH  048%=      5-min Rain = 0
KBO1 150102Z 36012KT 04/M06 A3019 RMK A01 T00371062  RH  048%=      5-min Rain = 0
KBO1 150103Z 35010KT 04/M06 A3019 RMK A01 T00371062  RH  048%=      5-min Rain = 0
KBO1 150104Z 36010KT 04/M06 A3019 RMK A01 T00361062  RH  049%=      5-min Rain = 0
KBO1 150105Z 35009KT 04/M06 A3019 RMK A01 T00351062  RH  049%=      5-min Rain = 0
KBO1 150106Z 35010KT 03/M06 A3019 RMK A01 T00341061  RH  050%=      5-min Rain = 0
KBO1 150107Z 35010KT 03/M06 A3019 RMK A01 T00331061  RH  050%=      5-min Rain = 0
KBO1 150108Z 35009KT 03/M06 A3019 RMK A01 T00321061  RH  051%=      5-min Rain = 0
KBO1 150109Z 35009KT 03/M06 A3019 RMK A01 T00311060  RH  051%=      5-min Rain = 0
KBO1 150110Z 35009KT 03/M06 A3019 RMK A01 T00301061  RH  051%=      5-min Rain = 0
KBO1 150111Z 35009KT 03/M06 A3019 RMK A01 T00291060  RH  052%=      5-min Rain = 0
KBO1 150112Z 35009KT 03/M06 A3019 RMK A01 T00281060  RH  052%=      5-min Rain = 0
KBO1 150113Z 35008KT 03/M06 A3019 RMK A01 T00271060  RH  053%=      5-min Rain = 0
KBO1 150114Z 35008KT 03/M06 A3019 RMK A01 T00251060  RH  053%=      5-min Rain = 0
KBO1 150115Z 35008KT 02/M06 A3019 RMK A01 T00241059  RH  054%=      5-min Rain = 0
KBO1 150116Z 35008KT 02/M06 A3019 RMK A01 T00231059  RH  055%=      5-min Rain = 0
KBO1 150117Z 34008KT 02/M06 A3019 RMK A01 T00221059  RH  055%=      5-min Rain = 0
KBO1 150118Z 34008KT 02/M06 A3019 RMK A01 T00211059  RH  056%=      5-min Rain = 0
KBO1 150119Z 34008KT 02/M06 A3019 RMK A01 T00201059  RH  056%=      5-min Rain = 0
KBO1 150120Z 35009KT 02/M06 A3019 RMK A01 T00191059  RH  056%=      5-min Rain = 0
KBO1 150121Z 35008KT 02/M06 A3019 RMK A01 T00191059  RH  056%=      5-min Rain = 0
KBO1 150122Z 35008KT 02/M06 A3019 RMK A01 T00191059  RH  056%=      5-min Rain = 0
KBO1 150123Z 35008KT 02/M06 A3019 RMK A01 T00191060  RH  056%=      5-min Rain = 0
KBO1 150124Z 35008KT 02/M06 A3019 RMK A01 T00181060  RH  056%=      5-min Rain = 0
KBO1 150125Z 35008KT 02/M06 A3019 RMK A01 T00171060  RH  056%=      5-min Rain = 0
KBO1 150126Z 35008KT 02/M06 A3019 RMK A01 T00171060  RH  057%=      5-min Rain = 0
KBO1 150127Z 35008KT 02/M06 A3019 RMK A01 T00161060  RH  057%=      5-min Rain = 0
KBO1 150128Z 34008KT 02/M06 A3019 RMK A01 T00161060  RH  057%=      5-min Rain = 0
KBO1 150129Z 34008KT 02/M06 A3019 RMK A01 T00151060  RH  058%=      5-min Rain = 0
KBO1 150130Z 34008KT 02/M06 A3019 RMK A01 T00151060  RH  058%=      5-min Rain = 0
KBO1 150131Z 34008KT 02/M06 A3019 RMK A01 T00151059  RH  058%=      5-min Rain = 0
KBO1 150132Z 34008KT 02/M06 A3019 RMK A01 T00151059  RH  058%=      5-min Rain = 0
KBO1 150133Z 34008KT 01/M06 A3019 RMK A01 T00141059  RH  058%=      5-min Rain = 0
KBO1 150134Z 34008KT 01/M06 A3019 RMK A01 T00141059  RH  058%=      5-min Rain = 0
KBO1 150135Z 34008KT 01/M06 A3019 RMK A01 T00141059  RH  058%=      5-min Rain = 0
KBO1 150136Z 34008KT 01/M06 A3019 RMK A01 T00131059  RH  059%=      5-min Rain = 0
KBO1 150137Z 34008KT 01/M06 A3019 RMK A01 T00121059  RH  059%=      5-min Rain = 0
KBO1 150138Z 34008KT 01/M06 A3019 RMK A01 T00121059  RH  059%=      5-min Rain = 0
KBO1 150139Z 34008KT 01/M06 A3019 RMK A01 T00111059  RH  060%=      5-min Rain = 0
KBO1 150140Z 34008KT 01/M06 A3019 RMK A01 T00111059  RH  060%=      5-min Rain = 0
KBO1 150141Z 34008KT 01/M06 A3019 RMK A01 T00101059  RH  060%=      5-min Rain = 0
KBO1 150142Z 34008KT 01/M06 A3019 RMK A01 T00091059  RH  060%=      5-min Rain = 0
KBO1 150143Z 34008KT 01/M06 A3019 RMK A01 T00091059  RH  061%=      5-min Rain = 0
KBO1 150144Z 34008KT 01/M06 A302 RMK A01 T00081059  RH  061%=      5-min Rain = 0
KBO1 150145Z 34008KT 01/M06 A302 RMK A01 T00081059  RH  061%=      5-min Rain = 0
KBO1 150146Z 34008KT 01/M06 A302 RMK A01 T00081059  RH  061%=      5-min Rain = 0
KBO1 150147Z 34008KT 01/M06 A302 RMK A01 T00081058  RH  061%=      5-min Rain = 0
KBO1 150148Z 34008KT 01/M06 A302 RMK A01 T00071058  RH  062%=      5-min Rain = 0
KBO1 150149Z 34008KT 01/M06 A302 RMK A01 T00061058  RH  062%=      5-min Rain = 0
KBO1 150150Z 34008KT 01/M06 A302 RMK A01 T00061058  RH  062%=      5-min Rain = 0
KBO1 150151Z 34008KT 01/M06 A302 RMK A01 T00061058  RH  062%=      5-min Rain = 0
KBO1 150152Z 34008KT 01/M06 A302 RMK A01 T00061058  RH  062%=      5-min Rain = 0
KBO1 150153Z 34008KT 01/M06 A302 RMK A01 T00061058  RH  062%=      5-min Rain = 0
KBO1 150154Z 34008KT 01/M06 A302 RMK A01 T00061058  RH  062%=      5-min Rain = 0
KBO1 150155Z 34008KT 01/M06 A302 RMK A01 T00051058  RH  063%=      5-min Rain = 0
KBO1 150156Z 34008KT 01/M06 A302 RMK A01 T00051058  RH  063%=      5-min Rain = 0
KBO1 150157Z 34008KT 01/M06 A3019 RMK A01 T00051058  RH  063%=      5-min Rain = 0
KBO1 150158Z 34008KT 01/M06 A3019 RMK A01 T00051058  RH  063%=      5-min Rain = 0
KBO1 150159Z 34008KT 01/M06 A3019 RMK A01 T00051058  RH  063%=      5-min Rain = 0
KBO1 150200Z 34008KT 01/M06 A3019 RMK A01 T00051058  RH  063%=      5-min Rain = 0
KBO1 150201Z 34008KT 01/M06 A3019 RMK A01 T00051057  RH  063%=      5-min Rain = 0
KBO1 150202Z 34008KT 01/M06 A3019 RMK A01 T00051057  RH  063%=      5-min Rain = 0
KBO1 150203Z 34009KT 01/M06 A3019 RMK A01 T00051057  RH  063%=      5-min Rain = 0
KBO1 150204Z 34009KT 01/M06 A3019 RMK A01 T00051057  RH  063%=      5-min Rain = 0
KBO1 150205Z 34008KT 01/M06 A3019 RMK A01 T00051057  RH  063%=      5-min Rain = 0
KBO1 150206Z 34009KT 01/M06 A3019 RMK A01 T00051057  RH  063%=      5-min Rain = 0
KBO1 150207Z 34009KT 01/M06 A3019 RMK A01 T00051057  RH  063%=      5-min Rain = 0
KBO1 150208Z 34009KT 01/M06 A3019 RMK A01 T00051056  RH  063%=      5-min Rain = 0
KBO1 150209Z 34008KT 01/M06 A3019 RMK A01 T00051057  RH  063%=      5-min Rain = 0
KBO1 150210Z 34009KT 01/M06 A3019 RMK A01 T00051057  RH  063%=      5-min Rain = 0
KBO1 150211Z 34009KT 01/M06 A3019 RMK A01 T00051056  RH  063%=      5-min Rain = 0
KBO1 150212Z 34008KT 01/M06 A3019 RMK A01 T00051057  RH  063%=      5-min Rain = 0
KBO1 150213Z 34008KT 01/M06 A3019 RMK A01 T00051057  RH  064%=      5-min Rain = 0
KBO1 150214Z 34009KT 01/M06 A3019 RMK A01 T00051056  RH  064%=      5-min Rain = 0
KBO1 150215Z 34008KT 01/M06 A3019 RMK A01 T00051056  RH  064%=      5-min Rain = 0
KBO1 150216Z 34008KT 00/M06 A3019 RMK A01 T00041056  RH  064%=      5-min Rain = 0
KBO1 150217Z 33008KT 00/M06 A3019 RMK A01 T00041056  RH  064%=      5-min Rain = 0
KBO1 150218Z 33008KT 00/M06 A302 RMK A01 T00041056  RH  064%=      5-min Rain = 0
KBO1 150219Z 33007KT 00/M06 A302 RMK A01 T00031056  RH  064%=      5-min Rain = 0
KBO1 150220Z 33008KT 00/M06 A302 RMK A01 T00021057  RH  065%=      5-min Rain = 0
KBO1 150221Z 33008KT 00/M06 A302 RMK A01 T00011057  RH  065%=      5-min Rain = 0
KBO1 150222Z 33007KT 00/06 A302 RMK A01 T00-00-57  RH  065%=      5-min Rain = 0
KBO1 150223Z 33008KT M00/M06 A302 RMK A01 T10011058  RH  066%=      5-min Rain = 0
KBO1 150224Z 33008KT M00/M06 A302 RMK A01 T10021058  RH  066%=      5-min Rain = 0
KBO1 150225Z 33008KT M00/M06 A302 RMK A01 T10041059  RH  066%=      5-min Rain = 0
KBO1 150226Z 33008KT M00/M06 A302 RMK A01 T10041059  RH  066%=      5-min Rain = 0
KBO1 150227Z 33008KT M01/M06 A302 RMK A01 T10051060  RH  067%=      5-min Rain = 0
KBO1 150228Z 33008KT M01/M06 A302 RMK A01 T10061060  RH  067%=      5-min Rain = 0
KBO1 150229Z 33008KT M01/M06 A302 RMK A01 T10061060  RH  067%=      5-min Rain = 0
KBO1 150230Z 33008KT M01/M06 A302 RMK A01 T10071060  RH  067%=      5-min Rain = 0
KBO1 150231Z 33009KT M01/M06 A302 RMK A01 T10071060  RH  067%=      5-min Rain = 0
KBO1 150232Z 34009KT M01/M06 A302 RMK A01 T10061059  RH  067%=      5-min Rain = 0
KBO1 150233Z 33009KT M01/M06 A302 RMK A01 T10061059  RH  067%=      5-min Rain = 0
KBO1 150234Z 34008KT M01/M06 A302 RMK A01 T10061059  RH  067%=      5-min Rain = 0
KBO1 150235Z 33008KT M01/M06 A302 RMK A01 T10061059  RH  067%=      5-min Rain = 0
KBO1 150236Z 33008KT M01/M06 A302 RMK A01 T10061060  RH  067%=      5-min Rain = 0
KBO1 150237Z 33008KT M01/M06 A302 RMK A01 T10061059  RH  067%=      5-min Rain = 0
KBO1 150238Z 33008KT M01/M06 A302 RMK A01 T10061059  RH  067%=      5-min Rain = 0
KBO1 150239Z 33009KT M01/M06 A302 RMK A01 T10061059  RH  067%=      5-min Rain = 0
KBO1 150240Z 33009KT M01/M06 A302 RMK A01 T10061059  RH  067%=      5-min Rain = 0
KBO1 150241Z 32009KT M01/M06 A302 RMK A01 T10061059  RH  068%=      5-min Rain = 0
KBO1 150242Z 33009KT M01/M06 A302 RMK A01 T10071059  RH  068%=      5-min Rain = 0
KBO1 150243Z 33009KT M01/M06 A302 RMK A01 T10081059  RH  068%=      5-min Rain = 0
KBO1 150244Z 33009KT M01/M06 A302 RMK A01 T10081059  RH  068%=      5-min Rain = 0
KBO1 150245Z 33009KT M01/M06 A302 RMK A01 T10081059  RH  068%=      5-min Rain = 0
KBO1 150246Z 33009KT M01/M06 A302 RMK A01 T10071059  RH  068%=      5-min Rain = 0
KBO1 150247Z 34009KT M01/M06 A302 RMK A01 T10061059  RH  068%=      5-min Rain = 0
KBO1 150248Z 34008KT M00/M06 A302 RMK A01 T10041058  RH  067%=      5-min Rain = 0
KBO1 150249Z 34009KT M00/M06 A302 RMK A01 T10031058  RH  066%=      5-min Rain = 0
KBO1 150250Z 34008KT M00/M06 A302 RMK A01 T10021058  RH  066%=      5-min Rain = 0
KBO1 150251Z 34008KT M00/M06 A302 RMK A01 T10021058  RH  066%=      5-min Rain = 0
KBO1 150252Z 34008KT M00/M06 A302 RMK A01 T10011058  RH  066%=      5-min Rain = 0
KBO1 150253Z 33007KT M00/M06 A302 RMK A01 T10021058  RH  066%=      5-min Rain = 0
KBO1 150254Z 33007KT M00/M06 A302 RMK A01 T10021058  RH  066%=      5-min Rain = 0
KBO1 150255Z 33007KT M00/M06 A302 RMK A01 T10031058  RH  066%=      5-min Rain = 0
KBO1 150256Z 33008KT M01/M06 A302 RMK A01 T10051059  RH  067%=      5-min Rain = 0
KBO1 150257Z 33008KT M01/M06 A302 RMK A01 T10071059  RH  068%=      5-min Rain = 0
KBO1 150258Z 34008KT M01/M06 A302 RMK A01 T10081059  RH  068%=      5-min Rain = 0
KBO1 150259Z 33008KT M01/M06 A3021 RMK A01 T10091059  RH  068%=      5-min Rain = 0
KBO1 150300Z 33008KT M01/M06 A3021 RMK A01 T10091059  RH  069%=      5-min Rain = 0
KBO1 150301Z 33008KT M01/M06 A3021 RMK A01 T10101059  RH  069%=      5-min Rain = 0
KBO1 150302Z 32008KT M01/M06 A3021 RMK A01 T10101059  RH  069%=      5-min Rain = 0
KBO1 150303Z 32008KT M01/M06 A3021 RMK A01 T10101059  RH  069%=      5-min Rain = 0
KBO1 150304Z 32008KT M01/M06 A3021 RMK A01 T10111059  RH  070%=      5-min Rain = 0
KBO1 150305Z 32008KT M01/M06 A3021 RMK A01 T10111059  RH  070%=      5-min Rain = 0
KBO1 150306Z 33009KT M01/M06 A3021 RMK A01 T10111058  RH  070%=      5-min Rain = 0
KBO1 150307Z 33009KT M01/M06 A3021 RMK A01 T10111058  RH  070%=      5-min Rain = 0
KBO1 150308Z 33009KT M01/M06 A3021 RMK A01 T10111059  RH  070%=      5-min Rain = 0
KBO1 150309Z 34009KT M01/M06 A3021 RMK A01 T10101059  RH  070%=      5-min Rain = 0
KBO1 150310Z 33009KT M01/M06 A3021 RMK A01 T10081057  RH  069%=      5-min Rain = 0
KBO1 150311Z 33009KT M01/M06 A3021 RMK A01 T10071057  RH  069%=      5-min Rain = 0
KBO1 150312Z 33009KT M01/M06 A3021 RMK A01 T10061057  RH  068%=      5-min Rain = 0
KBO1 150313Z 33009KT M01/M06 A3021 RMK A01 T10061057  RH  068%=      5-min Rain = 0
KBO1 150314Z 33009KT M01/M06 A3021 RMK A01 T10051057  RH  068%=      5-min Rain = 0
KBO1 150315Z 32007KT M01/M06 A3021 RMK A01 T10051057  RH  068%=      5-min Rain = 0
KBO1 150316Z 32007KT M01/M06 A3021 RMK A01 T10051057  RH  068%=      5-min Rain = 0
KBO1 150317Z 32007KT M01/M06 A3021 RMK A01 T10061057  RH  068%=      5-min Rain = 0
KBO1 150318Z 33008KT M01/M06 A3021 RMK A01 T10081057  RH  069%=      5-min Rain = 0
KBO1 150319Z 33008KT M01/M06 A3021 RMK A01 T10091058  RH  069%=      5-min Rain = 0
KBO1 150320Z 33008KT M01/M06 A3021 RMK A01 T10101058  RH  070%=      5-min Rain = 0
KBO1 150321Z 32008KT M01/M06 A3021 RMK A01 T10101058  RH  070%=      5-min Rain = 0
KBO1 150322Z 32008KT M01/M06 A3021 RMK A01 T10111058  RH  071%=      5-min Rain = 0
KBO1 150323Z 32008KT M01/M06 A3021 RMK A01 T10121058  RH  071%=      5-min Rain = 0
KBO1 150324Z 32008KT M01/M06 A3021 RMK A01 T10121057  RH  071%=      5-min Rain = 0
KBO1 150325Z 32008KT M01/M06 A3021 RMK A01 T10131058  RH  072%=      5-min Rain = 0
KBO1 150326Z 32008KT M01/M06 A3021 RMK A01 T10131057  RH  072%=      5-min Rain = 0
KBO1 150327Z 32008KT M01/M06 A3021 RMK A01 T10141058  RH  072%=      5-min Rain = 0
KBO1 150328Z 32008KT M01/M06 A3022 RMK A01 T10141058  RH  072%=      5-min Rain = 0
KBO1 150329Z 31008KT M02/M06 A3022 RMK A01 T10151058  RH  073%=      5-min Rain = 0
KBO1 150330Z 31007KT M02/M06 A3022 RMK A01 T10161058  RH  073%=      5-min Rain = 0
KBO1 150331Z 31008KT M02/M06 A3022 RMK A01 T10171058  RH  073%=      5-min Rain = 0
KBO1 150332Z 32008KT M02/M06 A3022 RMK A01 T10181059  RH  074%=      5-min Rain = 0
KBO1 150333Z 32008KT M02/M06 A3022 RMK A01 T10191060  RH  074%=      5-min Rain = 0
KBO1 150334Z 32008KT M02/M06 A3022 RMK A01 T10201060  RH  074%=      5-min Rain = 0
KBO1 150335Z 32007KT M02/M06 A3022 RMK A01 T10201060  RH  074%=      5-min Rain = 0
KBO1 150336Z 32007KT M02/M06 A3022 RMK A01 T10201060  RH  074%=      5-min Rain = 0
KBO1 150337Z 32008KT M02/M06 A3022 RMK A01 T10201060  RH  074%=      5-min Rain = 0
KBO1 150338Z 32008KT M02/M06 A3022 RMK A01 T10201059  RH  074%=      5-min Rain = 0
KBO1 150339Z 32008KT M02/M06 A3022 RMK A01 T10201059  RH  075%=      5-min Rain = 0
KBO1 150340Z 32008KT M02/M06 A3022 RMK A01 T10211059  RH  075%=      5-min Rain = 0
KBO1 150341Z 32008KT M02/M06 A3022 RMK A01 T10201059  RH  075%=      5-min Rain = 0
KBO1 150342Z 33008KT M02/M06 A3022 RMK A01 T10201059  RH  075%=      5-min Rain = 0
KBO1 150343Z 33008KT M02/M06 A3022 RMK A01 T10191059  RH  075%=      5-min Rain = 0
KBO1 150344Z 32007KT M02/M06 A3022 RMK A01 T10191059  RH  074%=      5-min Rain = 0
KBO1 150345Z 32007KT M02/M06 A3022 RMK A01 T10191059  RH  074%=      5-min Rain = 0
KBO1 150346Z 32008KT M02/M06 A3022 RMK A01 T10191059  RH  074%=      5-min Rain = 0
KBO1 150347Z 32007KT M02/M06 A3022 RMK A01 T10191059  RH  074%=      5-min Rain = 0
KBO1 150348Z 32007KT M02/M06 A3022 RMK A01 T10201059  RH  074%=      5-min Rain = 0
KBO1 150349Z 32007KT M02/M06 A3022 RMK A01 T10201060  RH  074%=      5-min Rain = 0
KBO1 150350Z 32007KT M02/M06 A3022 RMK A01 T10211060  RH  074%=      5-min Rain = 0
KBO1 150351Z 32007KT M02/M06 A3022 RMK A01 T10211060  RH  075%=      5-min Rain = 0
KBO1 150352Z 32007KT M02/M06 A3022 RMK A01 T10211060  RH  075%=      5-min Rain = 0
KBO1 150353Z 32007KT M02/M06 A3022 RMK A01 T10211059  RH  075%=      5-min Rain = 0
KBO1 150354Z 32007KT M02/M06 A3022 RMK A01 T10211060  RH  075%=      5-min Rain = 0
KBO1 150355Z 32007KT M02/M06 A3022 RMK A01 T10211060  RH  075%=      5-min Rain = 0
KBO1 150356Z 32007KT M02/M06 A3022 RMK A01 T10211059  RH  075%=      5-min Rain = 0
KBO1 150357Z 32007KT M02/M06 A3022 RMK A01 T10211060  RH  075%=      5-min Rain = 0
KBO1 150358Z 32007KT M02/M06 A3022 RMK A01 T10211060  RH  075%=      5-min Rain = 0
KBO1 150359Z 32008KT M02/M06 A3022 RMK A01 T10211059  RH  075%=      5-min Rain = 0
KBO1 150400Z 32008KT M02/M06 A3022 RMK A01 T10211059  RH  075%=      5-min Rain = 0
KBO1 150401Z 32008KT M02/M06 A3022 RMK A01 T10221059  RH  075%=      5-min Rain = 0
KBO1 150402Z 32008KT M02/M06 A3022 RMK A01 T10211059  RH  075%=      5-min Rain = 0
KBO1 150403Z 32008KT M02/M06 A3022 RMK A01 T10211059  RH  075%=      5-min Rain = 0
KBO1 150404Z 32008KT M02/M06 A3022 RMK A01 T10211059  RH  075%=      5-min Rain = 0
KBO1 150405Z 33008KT M02/M06 A3022 RMK A01 T10211059  RH  075%=      5-min Rain = 0
KBO1 150406Z 33008KT M02/M06 A3022 RMK A01 T10211059  RH  075%=      5-min Rain = 0
KBO1 150407Z 33008KT M02/M06 A3022 RMK A01 T10201059  RH  075%=      5-min Rain = 0
KBO1 150408Z 33008KT M02/M06 A3022 RMK A01 T10201059  RH  074%=      5-min Rain = 0
KBO1 150409Z 33008KT M02/M06 A3022 RMK A01 T10191059  RH  074%=      5-min Rain = 0
KBO1 150410Z 33008KT M02/M06 A3023 RMK A01 T10191059  RH  074%=      5-min Rain = 0
KBO1 150411Z 33008KT M02/M06 A3023 RMK A01 T10191059  RH  074%=      5-min Rain = 0
KBO1 150412Z 33008KT M02/M06 A3023 RMK A01 T10191059  RH  074%=      5-min Rain = 0
KBO1 150413Z 33008KT M02/M06 A3023 RMK A01 T10191059  RH  074%=      5-min Rain = 0
KBO1 150414Z 33008KT M02/M06 A3023 RMK A01 T10191059  RH  074%=      5-min Rain = 0
KBO1 150415Z 33007KT M02/M06 A3023 RMK A01 T10191058  RH  074%=      5-min Rain = 0
KBO1 150416Z 33007KT M02/M06 A3023 RMK A01 T10191058  RH  074%=      5-min Rain = 0
KBO1 150417Z 33007KT M02/M06 A3023 RMK A01 T10191058  RH  075%=      5-min Rain = 0
KBO1 150418Z 33007KT M02/M06 A3023 RMK A01 T10191058  RH  075%=      5-min Rain = 0
KBO1 150419Z 33007KT M02/M06 A3023 RMK A01 T10191058  RH  075%=      5-min Rain = 0
KBO1 150420Z 32007KT M02/M06 A3023 RMK A01 T10201058  RH  075%=      5-min Rain = 0
KBO1 150421Z 32007KT M02/M06 A3023 RMK A01 T10201057  RH  075%=      5-min Rain = 0
KBO1 150422Z 32007KT M02/M06 A3023 RMK A01 T10201057  RH  076%=      5-min Rain = 0
KBO1 150423Z 32007KT M02/M06 A3023 RMK A01 T10201057  RH  076%=      5-min Rain = 0
KBO1 150424Z 32007KT M02/M06 A3023 RMK A01 T10201057  RH  076%=      5-min Rain = 0
KBO1 150425Z 32007KT M02/M06 A3023 RMK A01 T10211057  RH  076%=      5-min Rain = 0
KBO1 150426Z 32007KT M02/M06 A3023 RMK A01 T10211057  RH  076%=      5-min Rain = 0
KBO1 150427Z 32007KT M02/M06 A3023 RMK A01 T10211057  RH  076%=      5-min Rain = 0
KBO1 150428Z 32008KT M02/M06 A3023 RMK A01 T10211057  RH  076%=      5-min Rain = 0
KBO1 150429Z 32008KT M02/M06 A3023 RMK A01 T10211057  RH  076%=      5-min Rain = 0
KBO1 150430Z 32007KT M02/M06 A3023 RMK A01 T10211057  RH  077%=      5-min Rain = 0
KBO1 150431Z 32007KT M02/M06 A3023 RMK A01 T10221057  RH  077%=      5-min Rain = 0
KBO1 150432Z 32008KT M02/M06 A3023 RMK A01 T10221058  RH  077%=      5-min Rain = 0
KBO1 150433Z 32008KT M02/M06 A3023 RMK A01 T10231058  RH  077%=      5-min Rain = 0
KBO1 150434Z 32008KT M02/M06 A3023 RMK A01 T10231057  RH  077%=      5-min Rain = 0
KBO1 150435Z 31008KT M02/M06 A3023 RMK A01 T10231058  RH  077%=      5-min Rain = 0
KBO1 150436Z 31008KT M02/M06 A3023 RMK A01 T10231058  RH  077%=      5-min Rain = 0
KBO1 150437Z 31008KT M02/M06 A3023 RMK A01 T10231057  RH  077%=      5-min Rain = 0
KBO1 150438Z 31008KT M02/M06 A3023 RMK A01 T10231057  RH  078%=      5-min Rain = 0
KBO1 150439Z 31008KT M02/M06 A3023 RMK A01 T10231057  RH  078%=      5-min Rain = 0
KBO1 150440Z 31008KT M02/M06 A3023 RMK A01 T10231057  RH  078%=      5-min Rain = 0
KBO1 150441Z 31008KT M02/M06 A3023 RMK A01 T10231057  RH  078%=      5-min Rain = 0
KBO1 150442Z 31008KT M02/M06 A3023 RMK A01 T10231057  RH  078%=      5-min Rain = 0
KBO1 150443Z 31008KT M02/M06 A3023 RMK A01 T10221056  RH  078%=      5-min Rain = 0
KBO1 150444Z 31008KT M02/M06 A3023 RMK A01 T10221056  RH  077%=      5-min Rain = 0
KBO1 150445Z 31008KT M02/M06 A3023 RMK A01 T10221056  RH  077%=      5-min Rain = 0
KBO1 150446Z 31008KT M02/M06 A3023 RMK A01 T10211057  RH  077%=      5-min Rain = 0
KBO1 150447Z 31008KT M02/M06 A3023 RMK A01 T10211057  RH  077%=      5-min Rain = 0
KBO1 150448Z 31008KT M02/M06 A3023 RMK A01 T10211056  RH  077%=      5-min Rain = 0
KBO1 150449Z 31008KT M02/M06 A3023 RMK A01 T10211056  RH  077%=      5-min Rain = 0
KBO1 150450Z 31008KT M02/M06 A3023 RMK A01 T10211056  RH  077%=      5-min Rain = 0
KBO1 150451Z 31008KT M02/M06 A3023 RMK A01 T10211056  RH  077%=      5-min Rain = 0
KBO1 150452Z 31008KT M02/M06 A3023 RMK A01 T10211056  RH  077%=      5-min Rain = 0
KBO1 150453Z 31008KT M02/M06 A3023 RMK A01 T10211056  RH  077%=      5-min Rain = 0
KBO1 150454Z 31008KT M02/M06 A3023 RMK A01 T10211056  RH  077%=      5-min Rain = 0
KBO1 150455Z 31008KT M02/M06 A3023 RMK A01 T10211056  RH  077%=      5-min Rain = 0
KBO1 150456Z 31008KT M02/M06 A3023 RMK A01 T10211056  RH  077%=      5-min Rain = 0
KBO1 150457Z 31008KT M02/M06 A3023 RMK A01 T10221056  RH  077%=      5-min Rain = 0
KBO1 150458Z 30008KT M02/M06 A3023 RMK A01 T10211056  RH  077%=      5-min Rain = 0
KBO1 150459Z 30008KT M02/M06 A3023 RMK A01 T10221056  RH  077%=      5-min Rain = 0
KBO1 150500Z 30008KT M02/M06 A3023 RMK A01 T10211056  RH  077%=      5-min Rain = 0
KBO1 150501Z 30008KT M02/M06 A3023 RMK A01 T10221057  RH  077%=      5-min Rain = 0
KBO1 150502Z 30008KT M02/M06 A3023 RMK A01 T10221056  RH  077%=      5-min Rain = 0
KBO1 150503Z 30008KT M02/M06 A3023 RMK A01 T10221056  RH  078%=      5-min Rain = 0
KBO1 150504Z 30009KT M02/M06 A3023 RMK A01 T10221056  RH  078%=      5-min Rain = 0
KBO1 150505Z 30009KT M02/M06 A3023 RMK A01 T10231056  RH  078%=      5-min Rain = 0
KBO1 150506Z 30009KT M02/M06 A3023 RMK A01 T10221056  RH  078%=      5-min Rain = 0
KBO1 150507Z 29009KT M02/M06 A3023 RMK A01 T10221056  RH  078%=      5-min Rain = 0
KBO1 150508Z 30008KT M02/M06 A3023 RMK A01 T10211055  RH  077%=      5-min Rain = 0
KBO1 150509Z 29008KT M02/M06 A3023 RMK A01 T10221056  RH  077%=      5-min Rain = 0
KBO1 150510Z 29008KT M02/M06 A3023 RMK A01 T10221056  RH  077%=      5-min Rain = 0
KBO1 150511Z 30008KT M02/M06 A3023 RMK A01 T10211056  RH  077%=      5-min Rain = 0
KBO1 150512Z 30008KT M02/M06 A3023 RMK A01 T10221056  RH  077%=      5-min Rain = 0
KBO1 150513Z 30008KT M02/M06 A3023 RMK A01 T10211056  RH  077%=      5-min Rain = 0
KBO1 150514Z 30008KT M02/M06 A3023 RMK A01 T10211056  RH  077%=      5-min Rain = 0
KBO1 150515Z 29008KT M02/M06 A3023 RMK A01 T10211056  RH  077%=      5-min Rain = 0
KBO1 150516Z 30008KT M02/M06 A3023 RMK A01 T10211056  RH  077%=      5-min Rain = 0
KBO1 150517Z 30008KT M02/M06 A3023 RMK A01 T10201056  RH  077%=      5-min Rain = 0
KBO1 150518Z 30008KT M02/M06 A3023 RMK A01 T10201055  RH  077%=      5-min Rain = 0
KBO1 150519Z 29008KT M02/M06 A3023 RMK A01 T10211056  RH  077%=      5-min Rain = 0
KBO1 150520Z 29008KT M02/M06 A3023 RMK A01 T10211055  RH  077%=      5-min Rain = 0
KBO1 150521Z 29008KT M02/M06 A3023 RMK A01 T10211055  RH  077%=      5-min Rain = 0
KBO1 150522Z 30008KT M02/M06 A3023 RMK A01 T10211055  RH  077%=      5-min Rain = 0
KBO1 150523Z 29008KT M02/M06 A3023 RMK A01 T10211056  RH  077%=      5-min Rain = 0
KBO1 150524Z 29008KT M02/M06 A3023 RMK A01 T10211056  RH  077%=      5-min Rain = 0
KBO1 150525Z 29008KT M02/M06 A3023 RMK A01 T10211055  RH  077%=      5-min Rain = 0
KBO1 150526Z 29008KT M02/M06 A3023 RMK A01 T10211055  RH  077%=      5-min Rain = 0
KBO1 150527Z 29009KT M02/M06 A3023 RMK A01 T10211056  RH  077%=      5-min Rain = 0
KBO1 150528Z 29009KT M02/M06 A3023 RMK A01 T10221055  RH  078%=      5-min Rain = 0
KBO1 150529Z 29009KT M02/M06 A3023 RMK A01 T10221055  RH  078%=      5-min Rain = 0
KBO1 150530Z 29009KT M02/M06 A3023 RMK A01 T10221055  RH  078%=      5-min Rain = 0
KBO1 150531Z 29008KT M02/M06 A3023 RMK A01 T10221055  RH  078%=      5-min Rain = 0
KBO1 150532Z 29009KT M02/M06 A3023 RMK A01 T10211055  RH  078%=      5-min Rain = 0
KBO1 150533Z 29009KT M02/M06 A3023 RMK A01 T10211055  RH  078%=      5-min Rain = 0
KBO1 150534Z 29009KT M02/M06 A3023 RMK A01 T10211055  RH  077%=      5-min Rain = 0
KBO1 150535Z 29009KT M02/M06 A3023 RMK A01 T10211055  RH  077%=      5-min Rain = 0
KBO1 150536Z 29009KT M02/M06 A3023 RMK A01 T10201055  RH  077%=      5-min Rain = 0
KBO1 150537Z 29009KT M02/M06 A3023 RMK A01 T10201055  RH  077%=      5-min Rain = 0
KBO1 150538Z 29009KT M02/M06 A3023 RMK A01 T10211055  RH  077%=      5-min Rain = 0
KBO1 150539Z 30009KT M02/M06 A3023 RMK A01 T10211055  RH  077%=      5-min Rain = 0
KBO1 150540Z 29010KT M02/M06 A3023 RMK A01 T10201056  RH  077%=      5-min Rain = 0
KBO1 150541Z 29009KT M02/M06 A3023 RMK A01 T10211056  RH  077%=      5-min Rain = 0
KBO1 150542Z 30009KT M02/M06 A3023 RMK A01 T10201056  RH  077%=      5-min Rain = 0
KBO1 150543Z 30009KT M02/M06 A3023 RMK A01 T10201056  RH  077%=      5-min Rain = 0
KBO1 150544Z 30009KT M02/M06 A3023 RMK A01 T10201055  RH  077%=      5-min Rain = 0
KBO1 150545Z 29009KT M02/M06 A3024 RMK A01 T10201056  RH  077%=      5-min Rain = 0
KBO1 150546Z 30009KT M02/M06 A3024 RMK A01 T10201055  RH  077%=      5-min Rain = 0
KBO1 150547Z 30009KT M02/M06 A3024 RMK A01 T10201055  RH  077%=      5-min Rain = 0
KBO1 150548Z 30009KT M02/M06 A3024 RMK A01 T10201055  RH  077%=      5-min Rain = 0
KBO1 150549Z 30009KT M02/M06 A3024 RMK A01 T10201055  RH  077%=      5-min Rain = 0
KBO1 150550Z 30009KT M02/M06 A3024 RMK A01 T10201055  RH  077%=      5-min Rain = 0
KBO1 150551Z 30009KT M02/M06 A3024 RMK A01 T10201055  RH  077%=      5-min Rain = 0
KBO1 150552Z 29009KT M02/M06 A3024 RMK A01 T10191055  RH  077%=      5-min Rain = 0
KBO1 150553Z 30009KT M02/M06 A3024 RMK A01 T10191055  RH  077%=      5-min Rain = 0
KBO1 150554Z 29009KT M02/M06 A3024 RMK A01 T10191055  RH  077%=      5-min Rain = 0
KBO1 150555Z 30009KT M02/M05 A3024 RMK A01 T10191054  RH  077%=      5-min Rain = 0
KBO1 150556Z 30009KT M02/M06 A3024 RMK A01 T10191055  RH  076%=      5-min Rain = 0
KBO1 150557Z 30009KT M02/M06 A3024 RMK A01 T10191055  RH  076%=      5-min Rain = 0
KBO1 150558Z 30009KT M02/M06 A3024 RMK A01 T10181055  RH  076%=      5-min Rain = 0
KBO1 150559Z 30009KT M02/M06 A3024 RMK A01 T10181055  RH  076%=      5-min Rain = 0

Page generated in 0.1359 seconds.